<?xml version='1.0' encoding='UTF-8' standalone='yes' ?>
<gpx xmlns="http://www.topografix.com/GPX/1/1" xmlns:geotracker="http://ilyabogdanovich.com/gpx/extensions/geotracker" xmlns:xsi="http://www.w3.org/2001/XMLSchema-instance" xsi:schemaLocation="http://www.topografix.com/GPX/1/1 http://www.topografix.com/GPX/1/1/gpx.xsd" version="1.1" creator="Enregistré par Geo Tracker pour Android de Ilya Bogdanovich">
  <metadata>
    <name>Boucle Jargeau Châteauneuf-sur-Loire par le Temple de l'Amour</name>
    <link href="https://www.visorando.com/randonnee-boucle-jargeau-chateauneuf-sur-loire-par/" />
    <time>2025-04-07T15:12:07Z</time>
  </metadata>
 
  <trk>
    <name>Boucle Jargeau Châteauneuf-sur-Loire par le Temple de l'Amour</name>
    <extensions>
      <geotracker:meta>
        <geotracker:length>19448.26</geotracker:length>
        <geotracker:duration>22405000</geotracker:duration>
        <geotracker:creationtime>2025-04-07T15:12:07Z</geotracker:creationtime>
        <geotracker:activity>0</geotracker:activity>
      </geotracker:meta>
    </extensions>
    <trkseg>
      <trkpt lat="47.866332" lon="2.123497">
        <ele>105</ele>
        <time>2025-04-07T15:12:07Z</time>
      </trkpt>
      <trkpt lat="47.866486" lon="2.123583">
        <ele>105</ele>
        <time>2025-04-07T15:12:26Z</time>
      </trkpt>
      <trkpt lat="47.866635" lon="2.123682">
        <ele>105</ele>
        <time>2025-04-07T15:12:45Z</time>
      </trkpt>
      <trkpt lat="47.866795" lon="2.123776">
        <ele>105</ele>
        <time>2025-04-07T15:13:05Z</time>
      </trkpt>
      <trkpt lat="47.866949" lon="2.123866">
        <ele>105</ele>
        <time>2025-04-07T15:13:24Z</time>
      </trkpt>
      <trkpt lat="47.867033" lon="2.12391">
        <ele>105</ele>
        <time>2025-04-07T15:13:34Z</time>
      </trkpt>
      <trkpt lat="47.86707" lon="2.123964">
        <ele>105</ele>
        <time>2025-04-07T15:13:40Z</time>
      </trkpt>
      <trkpt lat="47.867094" lon="2.124027">
        <ele>105</ele>
        <time>2025-04-07T15:13:46Z</time>
      </trkpt>
      <trkpt lat="47.867124" lon="2.124076">
        <ele>105</ele>
        <time>2025-04-07T15:13:51Z</time>
      </trkpt>
      <trkpt lat="47.867133" lon="2.124146">
        <ele>105</ele>
        <time>2025-04-07T15:13:56Z</time>
      </trkpt>
      <trkpt lat="47.867142" lon="2.1242">
        <ele>105</ele>
        <time>2025-04-07T15:14:00Z</time>
      </trkpt>
      <trkpt lat="47.86716" lon="2.124259">
        <ele>106</ele>
        <time>2025-04-07T15:14:15Z</time>
      </trkpt>
      <trkpt lat="47.867221" lon="2.12428">
        <ele>105</ele>
        <time>2025-04-07T15:14:22Z</time>
      </trkpt>
      <trkpt lat="47.867234" lon="2.124369">
        <ele>105</ele>
        <time>2025-04-07T15:14:29Z</time>
      </trkpt>
      <trkpt lat="47.867318" lon="2.124414">
        <ele>106</ele>
        <time>2025-04-07T15:14:50Z</time>
      </trkpt>
      <trkpt lat="47.867286" lon="2.124594">
        <ele>106</ele>
        <time>2025-04-07T15:15:04Z</time>
      </trkpt>
      <trkpt lat="47.867259" lon="2.124784">
        <ele>106</ele>
        <time>2025-04-07T15:15:19Z</time>
      </trkpt>
      <trkpt lat="47.867232" lon="2.12497">
        <ele>106</ele>
        <time>2025-04-07T15:15:34Z</time>
      </trkpt>
      <trkpt lat="47.867201" lon="2.12516">
        <ele>106</ele>
        <time>2025-04-07T15:15:49Z</time>
      </trkpt>
      <trkpt lat="47.867172" lon="2.125385">
        <ele>106</ele>
        <time>2025-04-07T15:16:07Z</time>
      </trkpt>
      <trkpt lat="47.867115" lon="2.125691">
        <ele>106</ele>
        <time>2025-04-07T15:16:31Z</time>
      </trkpt>
      <trkpt lat="47.867102" lon="2.125766">
        <ele>106</ele>
        <time>2025-04-07T15:16:37Z</time>
      </trkpt>
      <trkpt lat="47.867097" lon="2.12582">
        <ele>106</ele>
        <time>2025-04-07T15:16:41Z</time>
      </trkpt>
      <trkpt lat="47.867089" lon="2.12587">
        <ele>106</ele>
        <time>2025-04-07T15:16:45Z</time>
      </trkpt>
      <trkpt lat="47.867123" lon="2.125889">
        <ele>106</ele>
        <time>2025-04-07T15:16:49Z</time>
      </trkpt>
      <trkpt lat="47.867246" lon="2.125951">
        <ele>106</ele>
        <time>2025-04-07T15:17:04Z</time>
      </trkpt>
      <trkpt lat="47.86737" lon="2.126004">
        <ele>102</ele>
        <time>2025-04-07T15:17:19Z</time>
      </trkpt>
      <trkpt lat="47.867289" lon="2.12637">
        <ele>101</ele>
        <time>2025-04-07T15:17:49Z</time>
      </trkpt>
      <trkpt lat="47.867213" lon="2.126736">
        <ele>103</ele>
        <time>2025-04-07T15:18:39Z</time>
      </trkpt>
      <trkpt lat="47.867174" lon="2.126927">
        <ele>101</ele>
        <time>2025-04-07T15:18:54Z</time>
      </trkpt>
      <trkpt lat="47.867087" lon="2.127071">
        <ele>103</ele>
        <time>2025-04-07T15:19:29Z</time>
      </trkpt>
      <trkpt lat="47.867057" lon="2.127155">
        <ele>102</ele>
        <time>2025-04-07T15:19:36Z</time>
      </trkpt>
      <trkpt lat="47.86703" lon="2.127238">
        <ele>101</ele>
        <time>2025-04-07T15:19:43Z</time>
      </trkpt>
      <trkpt lat="47.866965" lon="2.127428">
        <ele>102</ele>
        <time>2025-04-07T15:20:10Z</time>
      </trkpt>
      <trkpt lat="47.866814" lon="2.127722">
        <ele>101</ele>
        <time>2025-04-07T15:20:38Z</time>
      </trkpt>
      <trkpt lat="47.866663" lon="2.127999">
        <ele>101</ele>
        <time>2025-04-07T15:21:05Z</time>
      </trkpt>
      <trkpt lat="47.866499" lon="2.128288">
        <ele>101</ele>
        <time>2025-04-07T15:21:34Z</time>
      </trkpt>
      <trkpt lat="47.866355" lon="2.128541">
        <ele>101</ele>
        <time>2025-04-07T15:21:59Z</time>
      </trkpt>
      <trkpt lat="47.866244" lon="2.128722">
        <ele>101</ele>
        <time>2025-04-07T15:22:18Z</time>
      </trkpt>
      <trkpt lat="47.866137" lon="2.128887">
        <ele>102</ele>
        <time>2025-04-07T15:22:46Z</time>
      </trkpt>
      <trkpt lat="47.865898" lon="2.129244">
        <ele>100</ele>
        <time>2025-04-07T15:23:25Z</time>
      </trkpt>
      <trkpt lat="47.865795" lon="2.129367">
        <ele>101</ele>
        <time>2025-04-07T15:23:50Z</time>
      </trkpt>
      <trkpt lat="47.865718" lon="2.129429">
        <ele>101</ele>
        <time>2025-04-07T15:24:00Z</time>
      </trkpt>
      <trkpt lat="47.865594" lon="2.129625">
        <ele>101</ele>
        <time>2025-04-07T15:24:21Z</time>
      </trkpt>
      <trkpt lat="47.865428" lon="2.129893">
        <ele>103</ele>
        <time>2025-04-07T15:25:10Z</time>
      </trkpt>
      <trkpt lat="47.865336" lon="2.129995">
        <ele>103</ele>
        <time>2025-04-07T15:25:23Z</time>
      </trkpt>
      <trkpt lat="47.865201" lon="2.1301">
        <ele>103</ele>
        <time>2025-04-07T15:25:40Z</time>
      </trkpt>
      <trkpt lat="47.865146" lon="2.130365">
        <ele>103</ele>
        <time>2025-04-07T15:26:01Z</time>
      </trkpt>
      <trkpt lat="47.865072" lon="2.13055">
        <ele>103</ele>
        <time>2025-04-07T15:26:18Z</time>
      </trkpt>
      <trkpt lat="47.864881" lon="2.130824">
        <ele>103</ele>
        <time>2025-04-07T15:26:48Z</time>
      </trkpt>
      <trkpt lat="47.864717" lon="2.131103">
        <ele>103</ele>
        <time>2025-04-07T15:27:16Z</time>
      </trkpt>
      <trkpt lat="47.864558" lon="2.131394">
        <ele>103</ele>
        <time>2025-04-07T15:27:45Z</time>
      </trkpt>
      <trkpt lat="47.864402" lon="2.131688">
        <ele>103</ele>
        <time>2025-04-07T15:28:14Z</time>
      </trkpt>
      <trkpt lat="47.864341" lon="2.131757">
        <ele>103</ele>
        <time>2025-04-07T15:28:23Z</time>
      </trkpt>
      <trkpt lat="47.864293" lon="2.131838">
        <ele>103</ele>
        <time>2025-04-07T15:28:31Z</time>
      </trkpt>
      <trkpt lat="47.864273" lon="2.131924">
        <ele>103</ele>
        <time>2025-04-07T15:28:38Z</time>
      </trkpt>
      <trkpt lat="47.864208" lon="2.13205">
        <ele>103</ele>
        <time>2025-04-07T15:28:50Z</time>
      </trkpt>
      <trkpt lat="47.864058" lon="2.132311">
        <ele>104</ele>
        <time>2025-04-07T15:29:27Z</time>
      </trkpt>
      <trkpt lat="47.863915" lon="2.132565">
        <ele>103</ele>
        <time>2025-04-07T15:29:52Z</time>
      </trkpt>
      <trkpt lat="47.86377" lon="2.132869">
        <ele>103</ele>
        <time>2025-04-07T15:30:21Z</time>
      </trkpt>
      <trkpt lat="47.863614" lon="2.133165">
        <ele>103</ele>
        <time>2025-04-07T15:30:50Z</time>
      </trkpt>
      <trkpt lat="47.86351" lon="2.133387">
        <ele>102</ele>
        <time>2025-04-07T15:31:11Z</time>
      </trkpt>
      <trkpt lat="47.863402" lon="2.133595">
        <ele>103</ele>
        <time>2025-04-07T15:31:41Z</time>
      </trkpt>
      <trkpt lat="47.863253" lon="2.133911">
        <ele>103</ele>
        <time>2025-04-07T15:32:11Z</time>
      </trkpt>
      <trkpt lat="47.863125" lon="2.13424">
        <ele>102</ele>
        <time>2025-04-07T15:32:40Z</time>
      </trkpt>
      <trkpt lat="47.862893" lon="2.134851">
        <ele>102</ele>
        <time>2025-04-07T15:33:34Z</time>
      </trkpt>
      <trkpt lat="47.862669" lon="2.135397">
        <ele>102</ele>
        <time>2025-04-07T15:34:23Z</time>
      </trkpt>
      <trkpt lat="47.862515" lon="2.135726">
        <ele>103</ele>
        <time>2025-04-07T15:35:04Z</time>
      </trkpt>
      <trkpt lat="47.862345" lon="2.136057">
        <ele>103</ele>
        <time>2025-04-07T15:35:36Z</time>
      </trkpt>
      <trkpt lat="47.862219" lon="2.136363">
        <ele>103</ele>
        <time>2025-04-07T15:36:04Z</time>
      </trkpt>
      <trkpt lat="47.862025" lon="2.136738">
        <ele>104</ele>
        <time>2025-04-07T15:36:51Z</time>
      </trkpt>
      <trkpt lat="47.86178" lon="2.137113">
        <ele>103</ele>
        <time>2025-04-07T15:37:31Z</time>
      </trkpt>
      <trkpt lat="47.861485" lon="2.137415">
        <ele>104</ele>
        <time>2025-04-07T15:38:22Z</time>
      </trkpt>
      <trkpt lat="47.861319" lon="2.137693">
        <ele>104</ele>
        <time>2025-04-07T15:38:51Z</time>
      </trkpt>
      <trkpt lat="47.861143" lon="2.137966">
        <ele>104</ele>
        <time>2025-04-07T15:39:20Z</time>
      </trkpt>
      <trkpt lat="47.861006" lon="2.138284">
        <ele>103</ele>
        <time>2025-04-07T15:39:49Z</time>
      </trkpt>
      <trkpt lat="47.860826" lon="2.138643">
        <ele>104</ele>
        <time>2025-04-07T15:40:34Z</time>
      </trkpt>
      <trkpt lat="47.860722" lon="2.138862">
        <ele>104</ele>
        <time>2025-04-07T15:40:55Z</time>
      </trkpt>
      <trkpt lat="47.860628" lon="2.139099">
        <ele>104</ele>
        <time>2025-04-07T15:41:16Z</time>
      </trkpt>
      <trkpt lat="47.86043" lon="2.139603">
        <ele>103</ele>
        <time>2025-04-07T15:42:01Z</time>
      </trkpt>
      <trkpt lat="47.860269" lon="2.140143">
        <ele>104</ele>
        <time>2025-04-07T15:42:57Z</time>
      </trkpt>
      <trkpt lat="47.860111" lon="2.140625">
        <ele>104</ele>
        <time>2025-04-07T15:43:38Z</time>
      </trkpt>
      <trkpt lat="47.859962" lon="2.141057">
        <ele>104</ele>
        <time>2025-04-07T15:44:15Z</time>
      </trkpt>
      <trkpt lat="47.859855" lon="2.14136">
        <ele>104</ele>
        <time>2025-04-07T15:44:41Z</time>
      </trkpt>
      <trkpt lat="47.859717" lon="2.141862">
        <ele>104</ele>
        <time>2025-04-07T15:45:23Z</time>
      </trkpt>
      <trkpt lat="47.859365" lon="2.142742">
        <ele>104</ele>
        <time>2025-04-07T15:46:42Z</time>
      </trkpt>
      <trkpt lat="47.858994" lon="2.143611">
        <ele>104</ele>
        <time>2025-04-07T15:48:01Z</time>
      </trkpt>
      <trkpt lat="47.858745" lon="2.144504">
        <ele>102</ele>
        <time>2025-04-07T15:49:15Z</time>
      </trkpt>
      <trkpt lat="47.858519" lon="2.145354">
        <ele>103</ele>
        <time>2025-04-07T15:50:36Z</time>
      </trkpt>
      <trkpt lat="47.858389" lon="2.145864">
        <ele>103</ele>
        <time>2025-04-07T15:51:18Z</time>
      </trkpt>
      <trkpt lat="47.858184" lon="2.146757">
        <ele>104</ele>
        <time>2025-04-07T15:52:41Z</time>
      </trkpt>
      <trkpt lat="47.858004" lon="2.147602">
        <ele>104</ele>
        <time>2025-04-07T15:53:49Z</time>
      </trkpt>
      <trkpt lat="47.85787" lon="2.148062">
        <ele>105</ele>
        <time>2025-04-07T15:54:38Z</time>
      </trkpt>
      <trkpt lat="47.857792" lon="2.14831">
        <ele>104</ele>
        <time>2025-04-07T15:54:59Z</time>
      </trkpt>
      <trkpt lat="47.857739" lon="2.148504">
        <ele>104</ele>
        <time>2025-04-07T15:55:15Z</time>
      </trkpt>
      <trkpt lat="47.857726" lon="2.148719">
        <ele>104</ele>
        <time>2025-04-07T15:55:32Z</time>
      </trkpt>
      <trkpt lat="47.85768" lon="2.148867">
        <ele>104</ele>
        <time>2025-04-07T15:55:45Z</time>
      </trkpt>
      <trkpt lat="47.857649" lon="2.148993">
        <ele>103</ele>
        <time>2025-04-07T15:55:55Z</time>
      </trkpt>
      <trkpt lat="47.857635" lon="2.149065">
        <ele>104</ele>
        <time>2025-04-07T15:56:11Z</time>
      </trkpt>
      <trkpt lat="47.857563" lon="2.149325">
        <ele>103</ele>
        <time>2025-04-07T15:56:33Z</time>
      </trkpt>
      <trkpt lat="47.857527" lon="2.149384">
        <ele>104</ele>
        <time>2025-04-07T15:56:49Z</time>
      </trkpt>
      <trkpt lat="47.857478" lon="2.149454">
        <ele>104</ele>
        <time>2025-04-07T15:56:57Z</time>
      </trkpt>
      <trkpt lat="47.85746" lon="2.149524">
        <ele>104</ele>
        <time>2025-04-07T15:57:03Z</time>
      </trkpt>
      <trkpt lat="47.857451" lon="2.149618">
        <ele>104</ele>
        <time>2025-04-07T15:57:10Z</time>
      </trkpt>
      <trkpt lat="47.857419" lon="2.149811">
        <ele>104</ele>
        <time>2025-04-07T15:57:25Z</time>
      </trkpt>
      <trkpt lat="47.857396" lon="2.150043">
        <ele>104</ele>
        <time>2025-04-07T15:57:43Z</time>
      </trkpt>
      <trkpt lat="47.857396" lon="2.1503">
        <ele>103</ele>
        <time>2025-04-07T15:58:03Z</time>
      </trkpt>
      <trkpt lat="47.857311" lon="2.150745">
        <ele>103</ele>
        <time>2025-04-07T15:58:39Z</time>
      </trkpt>
      <trkpt lat="47.857225" lon="2.151172">
        <ele>103</ele>
        <time>2025-04-07T15:59:13Z</time>
      </trkpt>
      <trkpt lat="47.85707" lon="2.151839">
        <ele>103</ele>
        <time>2025-04-07T16:00:07Z</time>
      </trkpt>
      <trkpt lat="47.856917" lon="2.152494">
        <ele>102</ele>
        <time>2025-04-07T16:01:00Z</time>
      </trkpt>
      <trkpt lat="47.856807" lon="2.152947">
        <ele>103</ele>
        <time>2025-04-07T16:01:47Z</time>
      </trkpt>
      <trkpt lat="47.856705" lon="2.153358">
        <ele>103</ele>
        <time>2025-04-07T16:02:21Z</time>
      </trkpt>
      <trkpt lat="47.856638" lon="2.153677">
        <ele>103</ele>
        <time>2025-04-07T16:02:47Z</time>
      </trkpt>
      <trkpt lat="47.85657" lon="2.153977">
        <ele>103</ele>
        <time>2025-04-07T16:03:11Z</time>
      </trkpt>
      <trkpt lat="47.856518" lon="2.15427">
        <ele>103</ele>
        <time>2025-04-07T16:03:34Z</time>
      </trkpt>
      <trkpt lat="47.856478" lon="2.154533">
        <ele>103</ele>
        <time>2025-04-07T16:03:55Z</time>
      </trkpt>
      <trkpt lat="47.856395" lon="2.154914">
        <ele>103</ele>
        <time>2025-04-07T16:04:26Z</time>
      </trkpt>
      <trkpt lat="47.856316" lon="2.155399">
        <ele>103</ele>
        <time>2025-04-07T16:05:04Z</time>
      </trkpt>
      <trkpt lat="47.856248" lon="2.155868">
        <ele>104</ele>
        <time>2025-04-07T16:05:51Z</time>
      </trkpt>
      <trkpt lat="47.856125" lon="2.156454">
        <ele>104</ele>
        <time>2025-04-07T16:06:38Z</time>
      </trkpt>
      <trkpt lat="47.856093" lon="2.15662">
        <ele>105</ele>
        <time>2025-04-07T16:07:02Z</time>
      </trkpt>
      <trkpt lat="47.856057" lon="2.156823">
        <ele>104</ele>
        <time>2025-04-07T16:07:18Z</time>
      </trkpt>
      <trkpt lat="47.856043" lon="2.157022">
        <ele>104</ele>
        <time>2025-04-07T16:07:33Z</time>
      </trkpt>
      <trkpt lat="47.856018" lon="2.15729">
        <ele>104</ele>
        <time>2025-04-07T16:07:54Z</time>
      </trkpt>
      <trkpt lat="47.856003" lon="2.157563">
        <ele>104</ele>
        <time>2025-04-07T16:08:15Z</time>
      </trkpt>
      <trkpt lat="47.855924" lon="2.157885">
        <ele>105</ele>
        <time>2025-04-07T16:08:52Z</time>
      </trkpt>
      <trkpt lat="47.85588" lon="2.158012">
        <ele>106</ele>
        <time>2025-04-07T16:09:13Z</time>
      </trkpt>
      <trkpt lat="47.855873" lon="2.158336">
        <ele>104</ele>
        <time>2025-04-07T16:09:38Z</time>
      </trkpt>
      <trkpt lat="47.855801" lon="2.158771">
        <ele>105</ele>
        <time>2025-04-07T16:10:23Z</time>
      </trkpt>
      <trkpt lat="47.855715" lon="2.159291">
        <ele>104</ele>
        <time>2025-04-07T16:11:04Z</time>
      </trkpt>
      <trkpt lat="47.855607" lon="2.159736">
        <ele>104</ele>
        <time>2025-04-07T16:11:40Z</time>
      </trkpt>
      <trkpt lat="47.855433" lon="2.160363">
        <ele>105</ele>
        <time>2025-04-07T16:12:42Z</time>
      </trkpt>
      <trkpt lat="47.855391" lon="2.160546">
        <ele>105</ele>
        <time>2025-04-07T16:12:57Z</time>
      </trkpt>
      <trkpt lat="47.855359" lon="2.160664">
        <ele>105</ele>
        <time>2025-04-07T16:13:07Z</time>
      </trkpt>
      <trkpt lat="47.855326" lon="2.160836">
        <ele>105</ele>
        <time>2025-04-07T16:13:21Z</time>
      </trkpt>
      <trkpt lat="47.855269" lon="2.160959">
        <ele>105</ele>
        <time>2025-04-07T16:13:32Z</time>
      </trkpt>
      <trkpt lat="47.855212" lon="2.161227">
        <ele>105</ele>
        <time>2025-04-07T16:13:54Z</time>
      </trkpt>
      <trkpt lat="47.855143" lon="2.161453">
        <ele>104</ele>
        <time>2025-04-07T16:14:13Z</time>
      </trkpt>
      <trkpt lat="47.855096" lon="2.161651">
        <ele>104</ele>
        <time>2025-04-07T16:14:29Z</time>
      </trkpt>
      <trkpt lat="47.855042" lon="2.161847">
        <ele>104</ele>
        <time>2025-04-07T16:14:45Z</time>
      </trkpt>
      <trkpt lat="47.85492" lon="2.162297">
        <ele>105</ele>
        <time>2025-04-07T16:15:33Z</time>
      </trkpt>
      <trkpt lat="47.854768" lon="2.162735">
        <ele>105</ele>
        <time>2025-04-07T16:16:11Z</time>
      </trkpt>
      <trkpt lat="47.854754" lon="2.162864">
        <ele>104</ele>
        <time>2025-04-07T16:16:21Z</time>
      </trkpt>
      <trkpt lat="47.854693" lon="2.162965">
        <ele>104</ele>
        <time>2025-04-07T16:16:31Z</time>
      </trkpt>
      <trkpt lat="47.854639" lon="2.163051">
        <ele>103</ele>
        <time>2025-04-07T16:16:40Z</time>
      </trkpt>
      <trkpt lat="47.854411" lon="2.163461">
        <ele>104</ele>
        <time>2025-04-07T16:17:31Z</time>
      </trkpt>
      <trkpt lat="47.854339" lon="2.163569">
        <ele>104</ele>
        <time>2025-04-07T16:17:43Z</time>
      </trkpt>
      <trkpt lat="47.854275" lon="2.163679">
        <ele>103</ele>
        <time>2025-04-07T16:17:54Z</time>
      </trkpt>
      <trkpt lat="47.854218" lon="2.163839">
        <ele>103</ele>
        <time>2025-04-07T16:18:08Z</time>
      </trkpt>
      <trkpt lat="47.85413" lon="2.164006">
        <ele>103</ele>
        <time>2025-04-07T16:18:24Z</time>
      </trkpt>
      <trkpt lat="47.853871" lon="2.164421">
        <ele>101</ele>
        <time>2025-04-07T16:19:08Z</time>
      </trkpt>
      <trkpt lat="47.853778" lon="2.164532">
        <ele>104</ele>
        <time>2025-04-07T16:19:52Z</time>
      </trkpt>
      <trkpt lat="47.853682" lon="2.164727">
        <ele>103</ele>
        <time>2025-04-07T16:20:11Z</time>
      </trkpt>
      <trkpt lat="47.853573" lon="2.164859">
        <ele>103</ele>
        <time>2025-04-07T16:20:27Z</time>
      </trkpt>
      <trkpt lat="47.853518" lon="2.164936">
        <ele>103</ele>
        <time>2025-04-07T16:20:36Z</time>
      </trkpt>
      <trkpt lat="47.853449" lon="2.165038">
        <ele>102</ele>
        <time>2025-04-07T16:20:47Z</time>
      </trkpt>
      <trkpt lat="47.853381" lon="2.165166">
        <ele>103</ele>
        <time>2025-04-07T16:21:10Z</time>
      </trkpt>
      <trkpt lat="47.85324" lon="2.165365">
        <ele>102</ele>
        <time>2025-04-07T16:21:32Z</time>
      </trkpt>
      <trkpt lat="47.853096" lon="2.165584">
        <ele>102</ele>
        <time>2025-04-07T16:21:56Z</time>
      </trkpt>
      <trkpt lat="47.852963" lon="2.165837">
        <ele>103</ele>
        <time>2025-04-07T16:22:31Z</time>
      </trkpt>
      <trkpt lat="47.852803" lon="2.166121">
        <ele>103</ele>
        <time>2025-04-07T16:22:59Z</time>
      </trkpt>
      <trkpt lat="47.852643" lon="2.166379">
        <ele>103</ele>
        <time>2025-04-07T16:23:26Z</time>
      </trkpt>
      <trkpt lat="47.852565" lon="2.166526">
        <ele>104</ele>
        <time>2025-04-07T16:23:51Z</time>
      </trkpt>
      <trkpt lat="47.852418" lon="2.166764">
        <ele>104</ele>
        <time>2025-04-07T16:24:16Z</time>
      </trkpt>
      <trkpt lat="47.852259" lon="2.167006">
        <ele>105</ele>
        <time>2025-04-07T16:24:52Z</time>
      </trkpt>
      <trkpt lat="47.852123" lon="2.167245">
        <ele>105</ele>
        <time>2025-04-07T16:25:16Z</time>
      </trkpt>
      <trkpt lat="47.852043" lon="2.167291">
        <ele>104</ele>
        <time>2025-04-07T16:25:26Z</time>
      </trkpt>
      <trkpt lat="47.851928" lon="2.167332">
        <ele>105</ele>
        <time>2025-04-07T16:25:50Z</time>
      </trkpt>
      <trkpt lat="47.851878" lon="2.167413">
        <ele>105</ele>
        <time>2025-04-07T16:25:58Z</time>
      </trkpt>
      <trkpt lat="47.851773" lon="2.167669">
        <ele>104</ele>
        <time>2025-04-07T16:26:21Z</time>
      </trkpt>
      <trkpt lat="47.851683" lon="2.167944">
        <ele>105</ele>
        <time>2025-04-07T16:26:55Z</time>
      </trkpt>
      <trkpt lat="47.851709" lon="2.168073">
        <ele>104</ele>
        <time>2025-04-07T16:27:05Z</time>
      </trkpt>
      <trkpt lat="47.851676" lon="2.168223">
        <ele>105</ele>
        <time>2025-04-07T16:27:27Z</time>
      </trkpt>
      <trkpt lat="47.85164" lon="2.168319">
        <ele>104</ele>
        <time>2025-04-07T16:27:35Z</time>
      </trkpt>
      <trkpt lat="47.851597" lon="2.168373">
        <ele>105</ele>
        <time>2025-04-07T16:27:52Z</time>
      </trkpt>
      <trkpt lat="47.851496" lon="2.168582">
        <ele>106</ele>
        <time>2025-04-07T16:28:22Z</time>
      </trkpt>
      <trkpt lat="47.851395" lon="2.168801">
        <ele>106</ele>
        <time>2025-04-07T16:28:42Z</time>
      </trkpt>
      <trkpt lat="47.851298" lon="2.169054">
        <ele>105</ele>
        <time>2025-04-07T16:29:04Z</time>
      </trkpt>
      <trkpt lat="47.851169" lon="2.169414">
        <ele>105</ele>
        <time>2025-04-07T16:29:35Z</time>
      </trkpt>
      <trkpt lat="47.850996" lon="2.169532">
        <ele>105</ele>
        <time>2025-04-07T16:29:57Z</time>
      </trkpt>
      <trkpt lat="47.850958" lon="2.169581">
        <ele>105</ele>
        <time>2025-04-07T16:30:03Z</time>
      </trkpt>
      <trkpt lat="47.850938" lon="2.169634">
        <ele>105</ele>
        <time>2025-04-07T16:30:08Z</time>
      </trkpt>
      <trkpt lat="47.85091" lon="2.169702">
        <ele>105</ele>
        <time>2025-04-07T16:30:14Z</time>
      </trkpt>
      <trkpt lat="47.850859" lon="2.169799">
        <ele>105</ele>
        <time>2025-04-07T16:30:23Z</time>
      </trkpt>
      <trkpt lat="47.850809" lon="2.169952">
        <ele>106</ele>
        <time>2025-04-07T16:30:46Z</time>
      </trkpt>
      <trkpt lat="47.85074" lon="2.170073">
        <ele>105</ele>
        <time>2025-04-07T16:30:58Z</time>
      </trkpt>
      <trkpt lat="47.8506" lon="2.170303">
        <ele>105</ele>
        <time>2025-04-07T16:31:22Z</time>
      </trkpt>
      <trkpt lat="47.850474" lon="2.170567">
        <ele>105</ele>
        <time>2025-04-07T16:31:47Z</time>
      </trkpt>
      <trkpt lat="47.850451" lon="2.170673">
        <ele>105</ele>
        <time>2025-04-07T16:31:56Z</time>
      </trkpt>
      <trkpt lat="47.850433" lon="2.170759">
        <ele>105</ele>
        <time>2025-04-07T16:32:03Z</time>
      </trkpt>
      <trkpt lat="47.850402" lon="2.17085">
        <ele>105</ele>
        <time>2025-04-07T16:32:11Z</time>
      </trkpt>
      <trkpt lat="47.850341" lon="2.170968">
        <ele>104</ele>
        <time>2025-04-07T16:32:22Z</time>
      </trkpt>
      <trkpt lat="47.850297" lon="2.171087">
        <ele>105</ele>
        <time>2025-04-07T16:32:43Z</time>
      </trkpt>
      <trkpt lat="47.850204" lon="2.17129">
        <ele>104</ele>
        <time>2025-04-07T16:33:02Z</time>
      </trkpt>
      <trkpt lat="47.85013" lon="2.171459">
        <ele>104</ele>
        <time>2025-04-07T16:33:18Z</time>
      </trkpt>
      <trkpt lat="47.850037" lon="2.171655">
        <ele>104</ele>
        <time>2025-04-07T16:33:36Z</time>
      </trkpt>
      <trkpt lat="47.849941" lon="2.171838">
        <ele>104</ele>
        <time>2025-04-07T16:33:54Z</time>
      </trkpt>
      <trkpt lat="47.849848" lon="2.171961">
        <ele>104</ele>
        <time>2025-04-07T16:34:08Z</time>
      </trkpt>
      <trkpt lat="47.849754" lon="2.172084">
        <ele>104</ele>
        <time>2025-04-07T16:34:22Z</time>
      </trkpt>
      <trkpt lat="47.849653" lon="2.172178">
        <ele>104</ele>
        <time>2025-04-07T16:34:36Z</time>
      </trkpt>
      <trkpt lat="47.84954" lon="2.17228">
        <ele>104</ele>
        <time>2025-04-07T16:34:51Z</time>
      </trkpt>
      <trkpt lat="47.849437" lon="2.172357">
        <ele>104</ele>
        <time>2025-04-07T16:35:04Z</time>
      </trkpt>
      <trkpt lat="47.849358" lon="2.17247">
        <ele>105</ele>
        <time>2025-04-07T16:35:27Z</time>
      </trkpt>
      <trkpt lat="47.849185" lon="2.172729">
        <ele>105</ele>
        <time>2025-04-07T16:35:55Z</time>
      </trkpt>
      <trkpt lat="47.849041" lon="2.172927">
        <ele>105</ele>
        <time>2025-04-07T16:36:17Z</time>
      </trkpt>
      <trkpt lat="47.848951" lon="2.173044">
        <ele>105</ele>
        <time>2025-04-07T16:36:31Z</time>
      </trkpt>
      <trkpt lat="47.84887" lon="2.17317">
        <ele>105</ele>
        <time>2025-04-07T16:36:44Z</time>
      </trkpt>
      <trkpt lat="47.848802" lon="2.173307">
        <ele>105</ele>
        <time>2025-04-07T16:36:57Z</time>
      </trkpt>
      <trkpt lat="47.848739" lon="2.173471">
        <ele>105</ele>
        <time>2025-04-07T16:37:12Z</time>
      </trkpt>
      <trkpt lat="47.848663" lon="2.173674">
        <ele>104</ele>
        <time>2025-04-07T16:37:30Z</time>
      </trkpt>
      <trkpt lat="47.848595" lon="2.173882">
        <ele>105</ele>
        <time>2025-04-07T16:37:58Z</time>
      </trkpt>
      <trkpt lat="47.848519" lon="2.174106">
        <ele>105</ele>
        <time>2025-04-07T16:38:17Z</time>
      </trkpt>
      <trkpt lat="47.848469" lon="2.174332">
        <ele>105</ele>
        <time>2025-04-07T16:38:35Z</time>
      </trkpt>
      <trkpt lat="47.848415" lon="2.174568">
        <ele>106</ele>
        <time>2025-04-07T16:39:04Z</time>
      </trkpt>
      <trkpt lat="47.848357" lon="2.174794">
        <ele>106</ele>
        <time>2025-04-07T16:39:23Z</time>
      </trkpt>
      <trkpt lat="47.848285" lon="2.175144">
        <ele>108</ele>
        <time>2025-04-07T16:40:12Z</time>
      </trkpt>
      <trkpt lat="47.848235" lon="2.175492">
        <ele>109</ele>
        <time>2025-04-07T16:40:50Z</time>
      </trkpt>
      <trkpt lat="47.848183" lon="2.175681">
        <ele>109</ele>
        <time>2025-04-07T16:41:06Z</time>
      </trkpt>
      <trkpt lat="47.848157" lon="2.17615">
        <ele>109</ele>
        <time>2025-04-07T16:41:42Z</time>
      </trkpt>
      <trkpt lat="47.84813" lon="2.176595">
        <ele>109</ele>
        <time>2025-04-07T16:42:16Z</time>
      </trkpt>
      <trkpt lat="47.848098" lon="2.177051">
        <ele>109</ele>
        <time>2025-04-07T16:42:51Z</time>
      </trkpt>
      <trkpt lat="47.848084" lon="2.177279">
        <ele>109</ele>
        <time>2025-04-07T16:43:09Z</time>
      </trkpt>
      <trkpt lat="47.848055" lon="2.177498">
        <ele>109</ele>
        <time>2025-04-07T16:43:26Z</time>
      </trkpt>
      <trkpt lat="47.848012" lon="2.1778">
        <ele>109</ele>
        <time>2025-04-07T16:43:50Z</time>
      </trkpt>
      <trkpt lat="47.847954" lon="2.17813">
        <ele>109</ele>
        <time>2025-04-07T16:44:16Z</time>
      </trkpt>
      <trkpt lat="47.847932" lon="2.178253">
        <ele>109</ele>
        <time>2025-04-07T16:44:26Z</time>
      </trkpt>
      <trkpt lat="47.847893" lon="2.178378">
        <ele>109</ele>
        <time>2025-04-07T16:44:37Z</time>
      </trkpt>
      <trkpt lat="47.847837" lon="2.178516">
        <ele>109</ele>
        <time>2025-04-07T16:44:49Z</time>
      </trkpt>
      <trkpt lat="47.847785" lon="2.178626">
        <ele>109</ele>
        <time>2025-04-07T16:44:59Z</time>
      </trkpt>
      <trkpt lat="47.847693" lon="2.178808">
        <ele>109</ele>
        <time>2025-04-07T16:45:17Z</time>
      </trkpt>
      <trkpt lat="47.847576" lon="2.178994">
        <ele>109</ele>
        <time>2025-04-07T16:45:37Z</time>
      </trkpt>
      <trkpt lat="47.847495" lon="2.179122">
        <ele>110</ele>
        <time>2025-04-07T16:46:01Z</time>
      </trkpt>
      <trkpt lat="47.847391" lon="2.179291">
        <ele>109</ele>
        <time>2025-04-07T16:46:19Z</time>
      </trkpt>
      <trkpt lat="47.847266" lon="2.179574">
        <ele>108</ele>
        <time>2025-04-07T16:46:45Z</time>
      </trkpt>
      <trkpt lat="47.847187" lon="2.17986">
        <ele>106</ele>
        <time>2025-04-07T16:47:09Z</time>
      </trkpt>
      <trkpt lat="47.847142" lon="2.180023">
        <ele>105</ele>
        <time>2025-04-07T16:47:23Z</time>
      </trkpt>
      <trkpt lat="47.847104" lon="2.180164">
        <ele>104</ele>
        <time>2025-04-07T16:47:35Z</time>
      </trkpt>
      <trkpt lat="47.846865" lon="2.180745">
        <ele>104</ele>
        <time>2025-04-07T16:48:27Z</time>
      </trkpt>
      <trkpt lat="47.846741" lon="2.18105">
        <ele>104</ele>
        <time>2025-04-07T16:48:54Z</time>
      </trkpt>
      <trkpt lat="47.846629" lon="2.181324">
        <ele>104</ele>
        <time>2025-04-07T16:49:19Z</time>
      </trkpt>
      <trkpt lat="47.846525" lon="2.181614">
        <ele>104</ele>
        <time>2025-04-07T16:49:44Z</time>
      </trkpt>
      <trkpt lat="47.846435" lon="2.181912">
        <ele>105</ele>
        <time>2025-04-07T16:50:19Z</time>
      </trkpt>
      <trkpt lat="47.84635" lon="2.182037">
        <ele>106</ele>
        <time>2025-04-07T16:50:43Z</time>
      </trkpt>
      <trkpt lat="47.846309" lon="2.182099">
        <ele>106</ele>
        <time>2025-04-07T16:50:50Z</time>
      </trkpt>
      <trkpt lat="47.846253" lon="2.182201">
        <ele>108</ele>
        <time>2025-04-07T16:51:21Z</time>
      </trkpt>
      <trkpt lat="47.846229" lon="2.182359">
        <ele>109</ele>
        <time>2025-04-07T16:51:44Z</time>
      </trkpt>
      <trkpt lat="47.846213" lon="2.182413">
        <ele>109</ele>
        <time>2025-04-07T16:51:49Z</time>
      </trkpt>
      <trkpt lat="47.846194" lon="2.182461">
        <ele>109</ele>
        <time>2025-04-07T16:51:53Z</time>
      </trkpt>
      <trkpt lat="47.846125" lon="2.183019">
        <ele>109</ele>
        <time>2025-04-07T16:52:37Z</time>
      </trkpt>
      <trkpt lat="47.846057" lon="2.183554">
        <ele>109</ele>
        <time>2025-04-07T16:53:19Z</time>
      </trkpt>
      <trkpt lat="47.846006" lon="2.183931">
        <ele>109</ele>
        <time>2025-04-07T16:53:49Z</time>
      </trkpt>
      <trkpt lat="47.845959" lon="2.184327">
        <ele>110</ele>
        <time>2025-04-07T16:54:30Z</time>
      </trkpt>
      <trkpt lat="47.845914" lon="2.184687">
        <ele>108</ele>
        <time>2025-04-07T16:54:58Z</time>
      </trkpt>
      <trkpt lat="47.845876" lon="2.185019">
        <ele>110</ele>
        <time>2025-04-07T16:55:44Z</time>
      </trkpt>
      <trkpt lat="47.845859" lon="2.185432">
        <ele>109</ele>
        <time>2025-04-07T16:56:16Z</time>
      </trkpt>
      <trkpt lat="47.845859" lon="2.185838">
        <ele>109</ele>
        <time>2025-04-07T16:56:47Z</time>
      </trkpt>
      <trkpt lat="47.845853" lon="2.186243">
        <ele>108</ele>
        <time>2025-04-07T16:57:18Z</time>
      </trkpt>
      <trkpt lat="47.84585" lon="2.186568">
        <ele>109</ele>
        <time>2025-04-07T16:57:53Z</time>
      </trkpt>
      <trkpt lat="47.845832" lon="2.186919">
        <ele>110</ele>
        <time>2025-04-07T16:58:30Z</time>
      </trkpt>
      <trkpt lat="47.845812" lon="2.187254">
        <ele>108</ele>
        <time>2025-04-07T16:58:56Z</time>
      </trkpt>
      <trkpt lat="47.84579" lon="2.187588">
        <ele>109</ele>
        <time>2025-04-07T16:59:32Z</time>
      </trkpt>
      <trkpt lat="47.845774" lon="2.187812">
        <ele>109</ele>
        <time>2025-04-07T16:59:49Z</time>
      </trkpt>
      <trkpt lat="47.845753" lon="2.188026">
        <ele>110</ele>
        <time>2025-04-07T17:00:16Z</time>
      </trkpt>
      <trkpt lat="47.845742" lon="2.188249">
        <ele>109</ele>
        <time>2025-04-07T17:00:33Z</time>
      </trkpt>
      <trkpt lat="47.845733" lon="2.188479">
        <ele>109</ele>
        <time>2025-04-07T17:00:51Z</time>
      </trkpt>
      <trkpt lat="47.845742" lon="2.188713">
        <ele>109</ele>
        <time>2025-04-07T17:01:09Z</time>
      </trkpt>
      <trkpt lat="47.845744" lon="2.188966">
        <ele>109</ele>
        <time>2025-04-07T17:01:28Z</time>
      </trkpt>
      <trkpt lat="47.845758" lon="2.189196">
        <ele>109</ele>
        <time>2025-04-07T17:01:46Z</time>
      </trkpt>
      <trkpt lat="47.845771" lon="2.18943">
        <ele>110</ele>
        <time>2025-04-07T17:02:14Z</time>
      </trkpt>
      <trkpt lat="47.845785" lon="2.189668">
        <ele>109</ele>
        <time>2025-04-07T17:02:32Z</time>
      </trkpt>
      <trkpt lat="47.845801" lon="2.189918">
        <ele>108</ele>
        <time>2025-04-07T17:02:51Z</time>
      </trkpt>
      <trkpt lat="47.845834" lon="2.190382">
        <ele>109</ele>
        <time>2025-04-07T17:03:37Z</time>
      </trkpt>
      <trkpt lat="47.845861" lon="2.190824">
        <ele>109</ele>
        <time>2025-04-07T17:04:11Z</time>
      </trkpt>
      <trkpt lat="47.845893" lon="2.191302">
        <ele>108</ele>
        <time>2025-04-07T17:04:48Z</time>
      </trkpt>
      <trkpt lat="47.845919" lon="2.191757">
        <ele>110</ele>
        <time>2025-04-07T17:05:44Z</time>
      </trkpt>
      <trkpt lat="47.845954" lon="2.192216">
        <ele>109</ele>
        <time>2025-04-07T17:06:19Z</time>
      </trkpt>
      <trkpt lat="47.845997" lon="2.19268">
        <ele>110</ele>
        <time>2025-04-07T17:07:05Z</time>
      </trkpt>
      <trkpt lat="47.846024" lon="2.192975">
        <ele>110</ele>
        <time>2025-04-07T17:07:28Z</time>
      </trkpt>
      <trkpt lat="47.84605" lon="2.193259">
        <ele>109</ele>
        <time>2025-04-07T17:07:50Z</time>
      </trkpt>
      <trkpt lat="47.846075" lon="2.193437">
        <ele>110</ele>
        <time>2025-04-07T17:08:14Z</time>
      </trkpt>
      <trkpt lat="47.846104" lon="2.193611">
        <ele>109</ele>
        <time>2025-04-07T17:08:28Z</time>
      </trkpt>
      <trkpt lat="47.846152" lon="2.193858">
        <ele>109</ele>
        <time>2025-04-07T17:08:48Z</time>
      </trkpt>
      <trkpt lat="47.846197" lon="2.194102">
        <ele>109</ele>
        <time>2025-04-07T17:09:07Z</time>
      </trkpt>
      <trkpt lat="47.846248" lon="2.194346">
        <ele>110</ele>
        <time>2025-04-07T17:09:37Z</time>
      </trkpt>
      <trkpt lat="47.846308" lon="2.194611">
        <ele>110</ele>
        <time>2025-04-07T17:09:58Z</time>
      </trkpt>
      <trkpt lat="47.846361" lon="2.194858">
        <ele>110</ele>
        <time>2025-04-07T17:10:18Z</time>
      </trkpt>
      <trkpt lat="47.846411" lon="2.1951">
        <ele>109</ele>
        <time>2025-04-07T17:10:37Z</time>
      </trkpt>
      <trkpt lat="47.846467" lon="2.195352">
        <ele>110</ele>
        <time>2025-04-07T17:11:08Z</time>
      </trkpt>
      <trkpt lat="47.846513" lon="2.195598">
        <ele>109</ele>
        <time>2025-04-07T17:11:28Z</time>
      </trkpt>
      <trkpt lat="47.846568" lon="2.195859">
        <ele>109</ele>
        <time>2025-04-07T17:11:49Z</time>
      </trkpt>
      <trkpt lat="47.846626" lon="2.196119">
        <ele>109</ele>
        <time>2025-04-07T17:12:10Z</time>
      </trkpt>
      <trkpt lat="47.84668" lon="2.196374">
        <ele>109</ele>
        <time>2025-04-07T17:12:31Z</time>
      </trkpt>
      <trkpt lat="47.846726" lon="2.19661">
        <ele>110</ele>
        <time>2025-04-07T17:13:00Z</time>
      </trkpt>
      <trkpt lat="47.846784" lon="2.196867">
        <ele>110</ele>
        <time>2025-04-07T17:13:21Z</time>
      </trkpt>
      <trkpt lat="47.84684" lon="2.197114">
        <ele>109</ele>
        <time>2025-04-07T17:13:41Z</time>
      </trkpt>
      <trkpt lat="47.846888" lon="2.197356">
        <ele>109</ele>
        <time>2025-04-07T17:14:00Z</time>
      </trkpt>
      <trkpt lat="47.846942" lon="2.197613">
        <ele>109</ele>
        <time>2025-04-07T17:14:21Z</time>
      </trkpt>
      <trkpt lat="47.847009" lon="2.197916">
        <ele>109</ele>
        <time>2025-04-07T17:14:46Z</time>
      </trkpt>
      <trkpt lat="47.847077" lon="2.198233">
        <ele>110</ele>
        <time>2025-04-07T17:15:22Z</time>
      </trkpt>
      <trkpt lat="47.84714" lon="2.198544">
        <ele>109</ele>
        <time>2025-04-07T17:15:47Z</time>
      </trkpt>
      <trkpt lat="47.847202" lon="2.198836">
        <ele>110</ele>
        <time>2025-04-07T17:16:21Z</time>
      </trkpt>
      <trkpt lat="47.84727" lon="2.199145">
        <ele>109</ele>
        <time>2025-04-07T17:16:46Z</time>
      </trkpt>
      <trkpt lat="47.847334" lon="2.199442">
        <ele>109</ele>
        <time>2025-04-07T17:17:10Z</time>
      </trkpt>
      <trkpt lat="47.847401" lon="2.19974">
        <ele>110</ele>
        <time>2025-04-07T17:17:44Z</time>
      </trkpt>
      <trkpt lat="47.847472" lon="2.200027">
        <ele>110</ele>
        <time>2025-04-07T17:18:08Z</time>
      </trkpt>
      <trkpt lat="47.847507" lon="2.200067">
        <ele>109</ele>
        <time>2025-04-07T17:18:13Z</time>
      </trkpt>
      <trkpt lat="47.847545" lon="2.20014">
        <ele>109</ele>
        <time>2025-04-07T17:18:20Z</time>
      </trkpt>
      <trkpt lat="47.847559" lon="2.200193">
        <ele>109</ele>
        <time>2025-04-07T17:18:24Z</time>
      </trkpt>
      <trkpt lat="47.847599" lon="2.200365">
        <ele>107</ele>
        <time>2025-04-07T17:18:38Z</time>
      </trkpt>
      <trkpt lat="47.847633" lon="2.20052">
        <ele>107</ele>
        <time>2025-04-07T17:18:51Z</time>
      </trkpt>
      <trkpt lat="47.847671" lon="2.200746">
        <ele>107</ele>
        <time>2025-04-07T17:19:09Z</time>
      </trkpt>
      <trkpt lat="47.847715" lon="2.200973">
        <ele>106</ele>
        <time>2025-04-07T17:19:27Z</time>
      </trkpt>
      <trkpt lat="47.84774" lon="2.201009">
        <ele>105</ele>
        <time>2025-04-07T17:19:31Z</time>
      </trkpt>
      <trkpt lat="47.847773" lon="2.20104">
        <ele>105</ele>
        <time>2025-04-07T17:19:35Z</time>
      </trkpt>
      <trkpt lat="47.847852" lon="2.201062">
        <ele>105</ele>
        <time>2025-04-07T17:19:44Z</time>
      </trkpt>
      <trkpt lat="47.84793" lon="2.201062">
        <ele>105</ele>
        <time>2025-04-07T17:19:53Z</time>
      </trkpt>
      <trkpt lat="47.848075" lon="2.20104">
        <ele>105</ele>
        <time>2025-04-07T17:20:10Z</time>
      </trkpt>
      <trkpt lat="47.84817" lon="2.201009">
        <ele>106</ele>
        <time>2025-04-07T17:20:31Z</time>
      </trkpt>
      <trkpt lat="47.848278" lon="2.200988">
        <ele>106</ele>
        <time>2025-04-07T17:20:43Z</time>
      </trkpt>
      <trkpt lat="47.848324" lon="2.200981">
        <ele>106</ele>
        <time>2025-04-07T17:20:48Z</time>
      </trkpt>
      <trkpt lat="47.848374" lon="2.200991">
        <ele>106</ele>
        <time>2025-04-07T17:20:54Z</time>
      </trkpt>
      <trkpt lat="47.848446" lon="2.201044">
        <ele>106</ele>
        <time>2025-04-07T17:21:03Z</time>
      </trkpt>
      <trkpt lat="47.848502" lon="2.201119">
        <ele>106</ele>
        <time>2025-04-07T17:21:12Z</time>
      </trkpt>
      <trkpt lat="47.848626" lon="2.201283">
        <ele>106</ele>
        <time>2025-04-07T17:21:31Z</time>
      </trkpt>
      <trkpt lat="47.848748" lon="2.201586">
        <ele>106</ele>
        <time>2025-04-07T17:21:58Z</time>
      </trkpt>
      <trkpt lat="47.848829" lon="2.20174">
        <ele>106</ele>
        <time>2025-04-07T17:22:13Z</time>
      </trkpt>
      <trkpt lat="47.848924" lon="2.20191">
        <ele>105</ele>
        <time>2025-04-07T17:22:30Z</time>
      </trkpt>
      <trkpt lat="47.849002" lon="2.202063">
        <ele>106</ele>
        <time>2025-04-07T17:22:55Z</time>
      </trkpt>
      <trkpt lat="47.849079" lon="2.202224">
        <ele>105</ele>
        <time>2025-04-07T17:23:10Z</time>
      </trkpt>
      <trkpt lat="47.84916" lon="2.202375">
        <ele>106</ele>
        <time>2025-04-07T17:23:35Z</time>
      </trkpt>
      <trkpt lat="47.849245" lon="2.202527">
        <ele>106</ele>
        <time>2025-04-07T17:23:50Z</time>
      </trkpt>
      <trkpt lat="47.849339" lon="2.202691">
        <ele>106</ele>
        <time>2025-04-07T17:24:07Z</time>
      </trkpt>
      <trkpt lat="47.849435" lon="2.202833">
        <ele>106</ele>
        <time>2025-04-07T17:24:22Z</time>
      </trkpt>
      <trkpt lat="47.849537" lon="2.202992">
        <ele>105</ele>
        <time>2025-04-07T17:24:39Z</time>
      </trkpt>
      <trkpt lat="47.849652" lon="2.20315">
        <ele>105</ele>
        <time>2025-04-07T17:24:57Z</time>
      </trkpt>
      <trkpt lat="47.849682" lon="2.20322">
        <ele>105</ele>
        <time>2025-04-07T17:25:03Z</time>
      </trkpt>
      <trkpt lat="47.849781" lon="2.203423">
        <ele>105</ele>
        <time>2025-04-07T17:25:22Z</time>
      </trkpt>
      <trkpt lat="47.849906" lon="2.203627">
        <ele>105</ele>
        <time>2025-04-07T17:25:43Z</time>
      </trkpt>
      <trkpt lat="47.850017" lon="2.20382">
        <ele>105</ele>
        <time>2025-04-07T17:26:03Z</time>
      </trkpt>
      <trkpt lat="47.850107" lon="2.204011">
        <ele>106</ele>
        <time>2025-04-07T17:26:31Z</time>
      </trkpt>
      <trkpt lat="47.850251" lon="2.204201">
        <ele>105</ele>
        <time>2025-04-07T17:26:53Z</time>
      </trkpt>
      <trkpt lat="47.850371" lon="2.204367">
        <ele>105</ele>
        <time>2025-04-07T17:27:12Z</time>
      </trkpt>
      <trkpt lat="47.8505" lon="2.20452">
        <ele>105</ele>
        <time>2025-04-07T17:27:31Z</time>
      </trkpt>
      <trkpt lat="47.850627" lon="2.204706">
        <ele>105</ele>
        <time>2025-04-07T17:27:51Z</time>
      </trkpt>
      <trkpt lat="47.850755" lon="2.204874">
        <ele>105</ele>
        <time>2025-04-07T17:28:11Z</time>
      </trkpt>
      <trkpt lat="47.850886" lon="2.205038">
        <ele>105</ele>
        <time>2025-04-07T17:28:31Z</time>
      </trkpt>
      <trkpt lat="47.85098" lon="2.205147">
        <ele>105</ele>
        <time>2025-04-07T17:28:45Z</time>
      </trkpt>
      <trkpt lat="47.851074" lon="2.20525">
        <ele>105</ele>
        <time>2025-04-07T17:28:58Z</time>
      </trkpt>
      <trkpt lat="47.851302" lon="2.205527">
        <ele>104</ele>
        <time>2025-04-07T17:29:32Z</time>
      </trkpt>
      <trkpt lat="47.851397" lon="2.205794">
        <ele>105</ele>
        <time>2025-04-07T17:30:06Z</time>
      </trkpt>
      <trkpt lat="47.851489" lon="2.206079">
        <ele>105</ele>
        <time>2025-04-07T17:30:30Z</time>
      </trkpt>
      <trkpt lat="47.851637" lon="2.206362">
        <ele>105</ele>
        <time>2025-04-07T17:30:58Z</time>
      </trkpt>
      <trkpt lat="47.851795" lon="2.206653">
        <ele>105</ele>
        <time>2025-04-07T17:31:27Z</time>
      </trkpt>
      <trkpt lat="47.851883" lon="2.206907">
        <ele>105</ele>
        <time>2025-04-07T17:31:49Z</time>
      </trkpt>
      <trkpt lat="47.851991" lon="2.207084">
        <ele>105</ele>
        <time>2025-04-07T17:32:07Z</time>
      </trkpt>
      <trkpt lat="47.852067" lon="2.207239">
        <ele>105</ele>
        <time>2025-04-07T17:32:22Z</time>
      </trkpt>
      <trkpt lat="47.852157" lon="2.207414">
        <ele>105</ele>
        <time>2025-04-07T17:32:39Z</time>
      </trkpt>
      <trkpt lat="47.852261" lon="2.207545">
        <ele>105</ele>
        <time>2025-04-07T17:32:55Z</time>
      </trkpt>
      <trkpt lat="47.85233" lon="2.207661">
        <ele>105</ele>
        <time>2025-04-07T17:33:07Z</time>
      </trkpt>
      <trkpt lat="47.852373" lon="2.207808">
        <ele>104</ele>
        <time>2025-04-07T17:33:19Z</time>
      </trkpt>
      <trkpt lat="47.852479" lon="2.208043">
        <ele>105</ele>
        <time>2025-04-07T17:33:51Z</time>
      </trkpt>
      <trkpt lat="47.852565" lon="2.208386">
        <ele>105</ele>
        <time>2025-04-07T17:34:19Z</time>
      </trkpt>
      <trkpt lat="47.852536" lon="2.208461">
        <ele>105</ele>
        <time>2025-04-07T17:34:26Z</time>
      </trkpt>
      <trkpt lat="47.852479" lon="2.208531">
        <ele>105</ele>
        <time>2025-04-07T17:34:34Z</time>
      </trkpt>
      <trkpt lat="47.852445" lon="2.208575">
        <ele>105</ele>
        <time>2025-04-07T17:34:39Z</time>
      </trkpt>
      <trkpt lat="47.852456" lon="2.208642">
        <ele>105</ele>
        <time>2025-04-07T17:34:44Z</time>
      </trkpt>
      <trkpt lat="47.852546" lon="2.208803">
        <ele>105</ele>
        <time>2025-04-07T17:35:00Z</time>
      </trkpt>
      <trkpt lat="47.852652" lon="2.208959">
        <ele>105</ele>
        <time>2025-04-07T17:35:17Z</time>
      </trkpt>
      <trkpt lat="47.852749" lon="2.209078">
        <ele>105</ele>
        <time>2025-04-07T17:35:31Z</time>
      </trkpt>
      <trkpt lat="47.852821" lon="2.209191">
        <ele>105</ele>
        <time>2025-04-07T17:35:43Z</time>
      </trkpt>
      <trkpt lat="47.852868" lon="2.209293">
        <ele>105</ele>
        <time>2025-04-07T17:35:53Z</time>
      </trkpt>
      <trkpt lat="47.852886" lon="2.209452">
        <ele>105</ele>
        <time>2025-04-07T17:36:05Z</time>
      </trkpt>
      <trkpt lat="47.852914" lon="2.209604">
        <ele>106</ele>
        <time>2025-04-07T17:36:27Z</time>
      </trkpt>
      <trkpt lat="47.853134" lon="2.210033">
        <ele>106</ele>
        <time>2025-04-07T17:37:08Z</time>
      </trkpt>
      <trkpt lat="47.853249" lon="2.210222">
        <ele>106</ele>
        <time>2025-04-07T17:37:28Z</time>
      </trkpt>
      <trkpt lat="47.853363" lon="2.210421">
        <ele>106</ele>
        <time>2025-04-07T17:37:48Z</time>
      </trkpt>
      <trkpt lat="47.853525" lon="2.210716">
        <ele>106</ele>
        <time>2025-04-07T17:38:17Z</time>
      </trkpt>
      <trkpt lat="47.853692" lon="2.210999">
        <ele>106</ele>
        <time>2025-04-07T17:38:46Z</time>
      </trkpt>
      <trkpt lat="47.85378" lon="2.211185">
        <ele>106</ele>
        <time>2025-04-07T17:39:03Z</time>
      </trkpt>
      <trkpt lat="47.853865" lon="2.211375">
        <ele>106</ele>
        <time>2025-04-07T17:39:21Z</time>
      </trkpt>
      <trkpt lat="47.853959" lon="2.211577">
        <ele>106</ele>
        <time>2025-04-07T17:39:40Z</time>
      </trkpt>
      <trkpt lat="47.854045" lon="2.211759">
        <ele>106</ele>
        <time>2025-04-07T17:39:57Z</time>
      </trkpt>
      <trkpt lat="47.854184" lon="2.212084">
        <ele>106</ele>
        <time>2025-04-07T17:40:27Z</time>
      </trkpt>
      <trkpt lat="47.854263" lon="2.21232">
        <ele>106</ele>
        <time>2025-04-07T17:40:47Z</time>
      </trkpt>
      <trkpt lat="47.854336" lon="2.212533">
        <ele>106</ele>
        <time>2025-04-07T17:41:05Z</time>
      </trkpt>
      <trkpt lat="47.854436" lon="2.212813">
        <ele>106</ele>
        <time>2025-04-07T17:41:29Z</time>
      </trkpt>
      <trkpt lat="47.854525" lon="2.213079">
        <ele>106</ele>
        <time>2025-04-07T17:41:52Z</time>
      </trkpt>
      <trkpt lat="47.854619" lon="2.213358">
        <ele>106</ele>
        <time>2025-04-07T17:42:16Z</time>
      </trkpt>
      <trkpt lat="47.854725" lon="2.213653">
        <ele>106</ele>
        <time>2025-04-07T17:42:42Z</time>
      </trkpt>
      <trkpt lat="47.854853" lon="2.214039">
        <ele>107</ele>
        <time>2025-04-07T17:43:25Z</time>
      </trkpt>
      <trkpt lat="47.854963" lon="2.21441">
        <ele>107</ele>
        <time>2025-04-07T17:43:56Z</time>
      </trkpt>
      <trkpt lat="47.855067" lon="2.214734">
        <ele>107</ele>
        <time>2025-04-07T17:44:24Z</time>
      </trkpt>
      <trkpt lat="47.855159" lon="2.215063">
        <ele>107</ele>
        <time>2025-04-07T17:44:51Z</time>
      </trkpt>
      <trkpt lat="47.855237" lon="2.21538">
        <ele>107</ele>
        <time>2025-04-07T17:45:17Z</time>
      </trkpt>
      <trkpt lat="47.855294" lon="2.215699">
        <ele>108</ele>
        <time>2025-04-07T17:45:53Z</time>
      </trkpt>
      <trkpt lat="47.855348" lon="2.21602">
        <ele>107</ele>
        <time>2025-04-07T17:46:18Z</time>
      </trkpt>
      <trkpt lat="47.855391" lon="2.216241">
        <ele>107</ele>
        <time>2025-04-07T17:46:36Z</time>
      </trkpt>
      <trkpt lat="47.855433" lon="2.216437">
        <ele>108</ele>
        <time>2025-04-07T17:47:02Z</time>
      </trkpt>
      <trkpt lat="47.855481" lon="2.216689">
        <ele>108</ele>
        <time>2025-04-07T17:47:22Z</time>
      </trkpt>
      <trkpt lat="47.855531" lon="2.216878">
        <ele>108</ele>
        <time>2025-04-07T17:47:38Z</time>
      </trkpt>
      <trkpt lat="47.855584" lon="2.217064">
        <ele>107</ele>
        <time>2025-04-07T17:47:54Z</time>
      </trkpt>
      <trkpt lat="47.855654" lon="2.217264">
        <ele>108</ele>
        <time>2025-04-07T17:48:22Z</time>
      </trkpt>
      <trkpt lat="47.855701" lon="2.217504">
        <ele>107</ele>
        <time>2025-04-07T17:48:41Z</time>
      </trkpt>
      <trkpt lat="47.855733" lon="2.217762">
        <ele>108</ele>
        <time>2025-04-07T17:49:11Z</time>
      </trkpt>
      <trkpt lat="47.855839" lon="2.218011">
        <ele>106</ele>
        <time>2025-04-07T17:49:34Z</time>
      </trkpt>
      <trkpt lat="47.855886" lon="2.218207">
        <ele>106</ele>
        <time>2025-04-07T17:49:50Z</time>
      </trkpt>
      <trkpt lat="47.855927" lon="2.218402">
        <ele>106</ele>
        <time>2025-04-07T17:50:06Z</time>
      </trkpt>
      <trkpt lat="47.855945" lon="2.218648">
        <ele>107</ele>
        <time>2025-04-07T17:50:35Z</time>
      </trkpt>
      <trkpt lat="47.855956" lon="2.218798">
        <ele>107</ele>
        <time>2025-04-07T17:50:47Z</time>
      </trkpt>
      <trkpt lat="47.855987" lon="2.219049">
        <ele>108</ele>
        <time>2025-04-07T17:51:17Z</time>
      </trkpt>
      <trkpt lat="47.856018" lon="2.219283">
        <ele>107</ele>
        <time>2025-04-07T17:51:35Z</time>
      </trkpt>
      <trkpt lat="47.85605" lon="2.219529">
        <ele>107</ele>
        <time>2025-04-07T17:51:54Z</time>
      </trkpt>
      <trkpt lat="47.856086" lon="2.219775">
        <ele>107</ele>
        <time>2025-04-07T17:52:13Z</time>
      </trkpt>
      <trkpt lat="47.856109" lon="2.219996">
        <ele>107</ele>
        <time>2025-04-07T17:52:30Z</time>
      </trkpt>
      <trkpt lat="47.856133" lon="2.220211">
        <ele>107</ele>
        <time>2025-04-07T17:52:47Z</time>
      </trkpt>
      <trkpt lat="47.856154" lon="2.22042">
        <ele>108</ele>
        <time>2025-04-07T17:53:14Z</time>
      </trkpt>
      <trkpt lat="47.856179" lon="2.220649">
        <ele>108</ele>
        <time>2025-04-07T17:53:32Z</time>
      </trkpt>
      <trkpt lat="47.856205" lon="2.220892">
        <ele>108</ele>
        <time>2025-04-07T17:53:51Z</time>
      </trkpt>
      <trkpt lat="47.856224" lon="2.22112">
        <ele>108</ele>
        <time>2025-04-07T17:54:09Z</time>
      </trkpt>
      <trkpt lat="47.856244" lon="2.221329">
        <ele>108</ele>
        <time>2025-04-07T17:54:25Z</time>
      </trkpt>
      <trkpt lat="47.856264" lon="2.221514">
        <ele>108</ele>
        <time>2025-04-07T17:54:39Z</time>
      </trkpt>
      <trkpt lat="47.856282" lon="2.221761">
        <ele>108</ele>
        <time>2025-04-07T17:54:58Z</time>
      </trkpt>
      <trkpt lat="47.856291" lon="2.222006">
        <ele>108</ele>
        <time>2025-04-07T17:55:17Z</time>
      </trkpt>
      <trkpt lat="47.856298" lon="2.222348">
        <ele>108</ele>
        <time>2025-04-07T17:55:43Z</time>
      </trkpt>
      <trkpt lat="47.856284" lon="2.222523">
        <ele>108</ele>
        <time>2025-04-07T17:55:57Z</time>
      </trkpt>
      <trkpt lat="47.856268" lon="2.222681">
        <ele>108</ele>
        <time>2025-04-07T17:56:09Z</time>
      </trkpt>
      <trkpt lat="47.856244" lon="2.222938">
        <ele>107</ele>
        <time>2025-04-07T17:56:29Z</time>
      </trkpt>
      <trkpt lat="47.856212" lon="2.223165">
        <ele>108</ele>
        <time>2025-04-07T17:56:57Z</time>
      </trkpt>
      <trkpt lat="47.856196" lon="2.223349">
        <ele>108</ele>
        <time>2025-04-07T17:57:11Z</time>
      </trkpt>
      <trkpt lat="47.856194" lon="2.223459">
        <ele>108</ele>
        <time>2025-04-07T17:57:19Z</time>
      </trkpt>
      <trkpt lat="47.856212" lon="2.223515">
        <ele>108</ele>
        <time>2025-04-07T17:57:24Z</time>
      </trkpt>
      <trkpt lat="47.856239" lon="2.223563">
        <ele>108</ele>
        <time>2025-04-07T17:57:29Z</time>
      </trkpt>
      <trkpt lat="47.856417" lon="2.22355">
        <ele>108</ele>
        <time>2025-04-07T17:57:49Z</time>
      </trkpt>
      <trkpt lat="47.856599" lon="2.223534">
        <ele>109</ele>
        <time>2025-04-07T17:58:20Z</time>
      </trkpt>
      <trkpt lat="47.856779" lon="2.22351">
        <ele>109</ele>
        <time>2025-04-07T17:58:41Z</time>
      </trkpt>
      <trkpt lat="47.85697" lon="2.223502">
        <ele>110</ele>
        <time>2025-04-07T17:59:13Z</time>
      </trkpt>
      <trkpt lat="47.857088" lon="2.223488">
        <ele>110</ele>
        <time>2025-04-07T17:59:27Z</time>
      </trkpt>
      <trkpt lat="47.857202" lon="2.22348">
        <ele>110</ele>
        <time>2025-04-07T17:59:40Z</time>
      </trkpt>
      <trkpt lat="47.857452" lon="2.223456">
        <ele>103</ele>
        <time>2025-04-07T18:00:09Z</time>
      </trkpt>
      <trkpt lat="47.857693" lon="2.223432">
        <ele>103</ele>
        <time>2025-04-07T18:00:37Z</time>
      </trkpt>
      <trkpt lat="47.857947" lon="2.223408">
        <ele>103</ele>
        <time>2025-04-07T18:01:06Z</time>
      </trkpt>
      <trkpt lat="47.858208" lon="2.223386">
        <ele>103</ele>
        <time>2025-04-07T18:01:36Z</time>
      </trkpt>
      <trkpt lat="47.85848" lon="2.22336">
        <ele>103</ele>
        <time>2025-04-07T18:02:07Z</time>
      </trkpt>
      <trkpt lat="47.858697" lon="2.223343">
        <ele>103</ele>
        <time>2025-04-07T18:02:32Z</time>
      </trkpt>
      <trkpt lat="47.858929" lon="2.223317">
        <ele>103</ele>
        <time>2025-04-07T18:02:59Z</time>
      </trkpt>
      <trkpt lat="47.859151" lon="2.223287">
        <ele>103</ele>
        <time>2025-04-07T18:03:25Z</time>
      </trkpt>
      <trkpt lat="47.859376" lon="2.223272">
        <ele>103</ele>
        <time>2025-04-07T18:03:51Z</time>
      </trkpt>
      <trkpt lat="47.859629" lon="2.223247">
        <ele>104</ele>
        <time>2025-04-07T18:04:30Z</time>
      </trkpt>
      <trkpt lat="47.859766" lon="2.223236">
        <ele>107</ele>
        <time>2025-04-07T18:05:17Z</time>
      </trkpt>
      <trkpt lat="47.859883" lon="2.223231">
        <ele>111</ele>
        <time>2025-04-07T18:06:12Z</time>
      </trkpt>
      <trkpt lat="47.859901" lon="2.223201">
        <ele>111</ele>
        <time>2025-04-07T18:06:15Z</time>
      </trkpt>
      <trkpt lat="47.859872" lon="2.222842">
        <ele>111</ele>
        <time>2025-04-07T18:06:43Z</time>
      </trkpt>
      <trkpt lat="47.859862" lon="2.222429">
        <ele>110</ele>
        <time>2025-04-07T18:07:15Z</time>
      </trkpt>
      <trkpt lat="47.859841" lon="2.221979">
        <ele>109</ele>
        <time>2025-04-07T18:07:50Z</time>
      </trkpt>
      <trkpt lat="47.85984" lon="2.221548">
        <ele>108</ele>
        <time>2025-04-07T18:08:23Z</time>
      </trkpt>
      <trkpt lat="47.859832" lon="2.221384">
        <ele>108</ele>
        <time>2025-04-07T18:08:36Z</time>
      </trkpt>
      <trkpt lat="47.859895" lon="2.221233">
        <ele>108</ele>
        <time>2025-04-07T18:08:50Z</time>
      </trkpt>
      <trkpt lat="47.859933" lon="2.221126">
        <ele>108</ele>
        <time>2025-04-07T18:08:59Z</time>
      </trkpt>
      <trkpt lat="47.860023" lon="2.220992">
        <ele>109</ele>
        <time>2025-04-07T18:09:24Z</time>
      </trkpt>
      <trkpt lat="47.860066" lon="2.220855">
        <ele>110</ele>
        <time>2025-04-07T18:09:46Z</time>
      </trkpt>
      <trkpt lat="47.860077" lon="2.220673">
        <ele>110</ele>
        <time>2025-04-07T18:10:00Z</time>
      </trkpt>
      <trkpt lat="47.860091" lon="2.220262">
        <ele>110</ele>
        <time>2025-04-07T18:10:32Z</time>
      </trkpt>
      <trkpt lat="47.86012" lon="2.219857">
        <ele>110</ele>
        <time>2025-04-07T18:11:03Z</time>
      </trkpt>
      <trkpt lat="47.860127" lon="2.219611">
        <ele>110</ele>
        <time>2025-04-07T18:11:22Z</time>
      </trkpt>
      <trkpt lat="47.860136" lon="2.219358">
        <ele>110</ele>
        <time>2025-04-07T18:11:41Z</time>
      </trkpt>
      <trkpt lat="47.860186" lon="2.219297">
        <ele>110</ele>
        <time>2025-04-07T18:11:48Z</time>
      </trkpt>
      <trkpt lat="47.860283" lon="2.219267">
        <ele>110</ele>
        <time>2025-04-07T18:11:59Z</time>
      </trkpt>
      <trkpt lat="47.860339" lon="2.21927">
        <ele>109</ele>
        <time>2025-04-07T18:12:05Z</time>
      </trkpt>
      <trkpt lat="47.860415" lon="2.219299">
        <ele>109</ele>
        <time>2025-04-07T18:12:14Z</time>
      </trkpt>
      <trkpt lat="47.860517" lon="2.219353">
        <ele>109</ele>
        <time>2025-04-07T18:12:26Z</time>
      </trkpt>
      <trkpt lat="47.860634" lon="2.219455">
        <ele>109</ele>
        <time>2025-04-07T18:12:42Z</time>
      </trkpt>
      <trkpt lat="47.860778" lon="2.219584">
        <ele>109</ele>
        <time>2025-04-07T18:13:01Z</time>
      </trkpt>
      <trkpt lat="47.860931" lon="2.219393">
        <ele>108</ele>
        <time>2025-04-07T18:13:24Z</time>
      </trkpt>
      <trkpt lat="47.861086" lon="2.219184">
        <ele>107</ele>
        <time>2025-04-07T18:13:48Z</time>
      </trkpt>
      <trkpt lat="47.861223" lon="2.219018">
        <ele>106</ele>
        <time>2025-04-07T18:14:08Z</time>
      </trkpt>
      <trkpt lat="47.861385" lon="2.218819">
        <ele>107</ele>
        <time>2025-04-07T18:14:42Z</time>
      </trkpt>
      <trkpt lat="47.861543" lon="2.218626">
        <ele>106</ele>
        <time>2025-04-07T18:15:05Z</time>
      </trkpt>
      <trkpt lat="47.861723" lon="2.218401">
        <ele>107</ele>
        <time>2025-04-07T18:15:42Z</time>
      </trkpt>
      <trkpt lat="47.861874" lon="2.218224">
        <ele>107</ele>
        <time>2025-04-07T18:16:04Z</time>
      </trkpt>
      <trkpt lat="47.862029" lon="2.218015">
        <ele>107</ele>
        <time>2025-04-07T18:16:28Z</time>
      </trkpt>
      <trkpt lat="47.86218" lon="2.217838">
        <ele>107</ele>
        <time>2025-04-07T18:16:50Z</time>
      </trkpt>
      <trkpt lat="47.86236" lon="2.217645">
        <ele>107</ele>
        <time>2025-04-07T18:17:15Z</time>
      </trkpt>
      <trkpt lat="47.862454" lon="2.217559">
        <ele>107</ele>
        <time>2025-04-07T18:17:28Z</time>
      </trkpt>
      <trkpt lat="47.862591" lon="2.217494">
        <ele>108</ele>
        <time>2025-04-07T18:17:55Z</time>
      </trkpt>
      <trkpt lat="47.862711" lon="2.217385">
        <ele>108</ele>
        <time>2025-04-07T18:18:11Z</time>
      </trkpt>
      <trkpt lat="47.862839" lon="2.217215">
        <ele>108</ele>
        <time>2025-04-07T18:18:31Z</time>
      </trkpt>
      <trkpt lat="47.862991" lon="2.216977">
        <ele>108</ele>
        <time>2025-04-07T18:18:56Z</time>
      </trkpt>
      <trkpt lat="47.863137" lon="2.216783">
        <ele>108</ele>
        <time>2025-04-07T18:19:18Z</time>
      </trkpt>
      <trkpt lat="47.863224" lon="2.216778">
        <ele>108</ele>
        <time>2025-04-07T18:19:28Z</time>
      </trkpt>
      <trkpt lat="47.863293" lon="2.216804">
        <ele>108</ele>
        <time>2025-04-07T18:19:36Z</time>
      </trkpt>
      <trkpt lat="47.863372" lon="2.216891">
        <ele>108</ele>
        <time>2025-04-07T18:19:47Z</time>
      </trkpt>
      <trkpt lat="47.863448" lon="2.216968">
        <ele>108</ele>
        <time>2025-04-07T18:19:58Z</time>
      </trkpt>
      <trkpt lat="47.863536" lon="2.217032">
        <ele>114</ele>
        <time>2025-04-07T18:21:11Z</time>
      </trkpt>
      <trkpt lat="47.863623" lon="2.217078">
        <ele>115</ele>
        <time>2025-04-07T18:21:32Z</time>
      </trkpt>
      <trkpt lat="47.863678" lon="2.217062">
        <ele>116</ele>
        <time>2025-04-07T18:21:49Z</time>
      </trkpt>
      <trkpt lat="47.863786" lon="2.216927">
        <ele>120</ele>
        <time>2025-04-07T18:22:46Z</time>
      </trkpt>
      <trkpt lat="47.863817" lon="2.216914">
        <ele>120</ele>
        <time>2025-04-07T18:22:50Z</time>
      </trkpt>
      <trkpt lat="47.863898" lon="2.216954">
        <ele>120</ele>
        <time>2025-04-07T18:23:00Z</time>
      </trkpt>
      <trkpt lat="47.863989" lon="2.216893">
        <ele>120</ele>
        <time>2025-04-07T18:23:11Z</time>
      </trkpt>
      <trkpt lat="47.864058" lon="2.216802">
        <ele>120</ele>
        <time>2025-04-07T18:23:22Z</time>
      </trkpt>
      <trkpt lat="47.864139" lon="2.216756">
        <ele>120</ele>
        <time>2025-04-07T18:23:32Z</time>
      </trkpt>
      <trkpt lat="47.864263" lon="2.216714">
        <ele>120</ele>
        <time>2025-04-07T18:23:47Z</time>
      </trkpt>
      <trkpt lat="47.864344" lon="2.216655">
        <ele>120</ele>
        <time>2025-04-07T18:23:57Z</time>
      </trkpt>
      <trkpt lat="47.864324" lon="2.21655">
        <ele>120</ele>
        <time>2025-04-07T18:24:05Z</time>
      </trkpt>
      <trkpt lat="47.864321" lon="2.216337">
        <ele>120</ele>
        <time>2025-04-07T18:24:21Z</time>
      </trkpt>
      <trkpt lat="47.864304" lon="2.216113">
        <ele>120</ele>
        <time>2025-04-07T18:24:38Z</time>
      </trkpt>
      <trkpt lat="47.864279" lon="2.215877">
        <ele>120</ele>
        <time>2025-04-07T18:24:56Z</time>
      </trkpt>
      <trkpt lat="47.864236" lon="2.215688">
        <ele>120</ele>
        <time>2025-04-07T18:25:11Z</time>
      </trkpt>
      <trkpt lat="47.864272" lon="2.215383">
        <ele>120</ele>
        <time>2025-04-07T18:25:35Z</time>
      </trkpt>
      <trkpt lat="47.864302" lon="2.215099">
        <ele>120</ele>
        <time>2025-04-07T18:25:57Z</time>
      </trkpt>
      <trkpt lat="47.864339" lon="2.214819">
        <ele>120</ele>
        <time>2025-04-07T18:26:19Z</time>
      </trkpt>
      <trkpt lat="47.86441" lon="2.214265">
        <ele>119</ele>
        <time>2025-04-07T18:27:02Z</time>
      </trkpt>
      <trkpt lat="47.864448" lon="2.214002">
        <ele>119</ele>
        <time>2025-04-07T18:27:23Z</time>
      </trkpt>
      <trkpt lat="47.864488" lon="2.213714">
        <ele>119</ele>
        <time>2025-04-07T18:27:46Z</time>
      </trkpt>
      <trkpt lat="47.864525" lon="2.213436">
        <ele>119</ele>
        <time>2025-04-07T18:28:08Z</time>
      </trkpt>
      <trkpt lat="47.864561" lon="2.213125">
        <ele>119</ele>
        <time>2025-04-07T18:28:32Z</time>
      </trkpt>
      <trkpt lat="47.864596" lon="2.21283">
        <ele>119</ele>
        <time>2025-04-07T18:28:55Z</time>
      </trkpt>
      <trkpt lat="47.864634" lon="2.212529">
        <ele>119</ele>
        <time>2025-04-07T18:29:19Z</time>
      </trkpt>
      <trkpt lat="47.864627" lon="2.212196">
        <ele>119</ele>
        <time>2025-04-07T18:29:45Z</time>
      </trkpt>
      <trkpt lat="47.864594" lon="2.21195">
        <ele>119</ele>
        <time>2025-04-07T18:30:04Z</time>
      </trkpt>
      <trkpt lat="47.864565" lon="2.211733">
        <ele>118</ele>
        <time>2025-04-07T18:30:21Z</time>
      </trkpt>
      <trkpt lat="47.864529" lon="2.211754">
        <ele>118</ele>
        <time>2025-04-07T18:30:25Z</time>
      </trkpt>
      <trkpt lat="47.864511" lon="2.211853">
        <ele>117</ele>
        <time>2025-04-07T18:30:33Z</time>
      </trkpt>
      <trkpt lat="47.864513" lon="2.212009">
        <ele>117</ele>
        <time>2025-04-07T18:30:45Z</time>
      </trkpt>
      <trkpt lat="47.8645" lon="2.212138">
        <ele>116</ele>
        <time>2025-04-07T18:30:55Z</time>
      </trkpt>
      <trkpt lat="47.864479" lon="2.212269">
        <ele>116</ele>
        <time>2025-04-07T18:31:05Z</time>
      </trkpt>
      <trkpt lat="47.864455" lon="2.212387">
        <ele>115</ele>
        <time>2025-04-07T18:31:14Z</time>
      </trkpt>
      <trkpt lat="47.864434" lon="2.212497">
        <ele>114</ele>
        <time>2025-04-07T18:31:23Z</time>
      </trkpt>
      <trkpt lat="47.864407" lon="2.212604">
        <ele>113</ele>
        <time>2025-04-07T18:31:32Z</time>
      </trkpt>
      <trkpt lat="47.86434" lon="2.212739">
        <ele>111</ele>
        <time>2025-04-07T18:31:45Z</time>
      </trkpt>
      <trkpt lat="47.864277" lon="2.212835">
        <ele>110</ele>
        <time>2025-04-07T18:31:55Z</time>
      </trkpt>
      <trkpt lat="47.86421" lon="2.21294">
        <ele>110</ele>
        <time>2025-04-07T18:32:06Z</time>
      </trkpt>
      <trkpt lat="47.864149" lon="2.21302">
        <ele>109</ele>
        <time>2025-04-07T18:32:15Z</time>
      </trkpt>
      <trkpt lat="47.86409" lon="2.213114">
        <ele>108</ele>
        <time>2025-04-07T18:32:25Z</time>
      </trkpt>
      <trkpt lat="47.864051" lon="2.213228">
        <ele>107</ele>
        <time>2025-04-07T18:32:35Z</time>
      </trkpt>
      <trkpt lat="47.863999" lon="2.213378">
        <ele>106</ele>
        <time>2025-04-07T18:32:48Z</time>
      </trkpt>
      <trkpt lat="47.863941" lon="2.213465">
        <ele>106</ele>
        <time>2025-04-07T18:32:57Z</time>
      </trkpt>
      <trkpt lat="47.863952" lon="2.213325">
        <ele>106</ele>
        <time>2025-04-07T18:33:08Z</time>
      </trkpt>
      <trkpt lat="47.863974" lon="2.213153">
        <ele>106</ele>
        <time>2025-04-07T18:33:21Z</time>
      </trkpt>
      <trkpt lat="47.864019" lon="2.212967">
        <ele>106</ele>
        <time>2025-04-07T18:33:36Z</time>
      </trkpt>
      <trkpt lat="47.864055" lon="2.212777">
        <ele>106</ele>
        <time>2025-04-07T18:33:51Z</time>
      </trkpt>
      <trkpt lat="47.864083" lon="2.212744">
        <ele>106</ele>
        <time>2025-04-07T18:33:55Z</time>
      </trkpt>
      <trkpt lat="47.864135" lon="2.212697">
        <ele>106</ele>
        <time>2025-04-07T18:34:02Z</time>
      </trkpt>
      <trkpt lat="47.864196" lon="2.212649">
        <ele>107</ele>
        <time>2025-04-07T18:34:20Z</time>
      </trkpt>
      <trkpt lat="47.864218" lon="2.212609">
        <ele>108</ele>
        <time>2025-04-07T18:34:34Z</time>
      </trkpt>
      <trkpt lat="47.864236" lon="2.212555">
        <ele>108</ele>
        <time>2025-04-07T18:34:39Z</time>
      </trkpt>
      <trkpt lat="47.864241" lon="2.212447">
        <ele>108</ele>
        <time>2025-04-07T18:34:47Z</time>
      </trkpt>
      <trkpt lat="47.864254" lon="2.212165">
        <ele>109</ele>
        <time>2025-04-07T18:35:19Z</time>
      </trkpt>
      <trkpt lat="47.864258" lon="2.211957">
        <ele>110</ele>
        <time>2025-04-07T18:35:45Z</time>
      </trkpt>
      <trkpt lat="47.864276" lon="2.211739">
        <ele>110</ele>
        <time>2025-04-07T18:36:02Z</time>
      </trkpt>
      <trkpt lat="47.864259" lon="2.211592">
        <ele>110</ele>
        <time>2025-04-07T18:36:13Z</time>
      </trkpt>
      <trkpt lat="47.864232" lon="2.211395">
        <ele>110</ele>
        <time>2025-04-07T18:36:28Z</time>
      </trkpt>
      <trkpt lat="47.864223" lon="2.211301">
        <ele>110</ele>
        <time>2025-04-07T18:36:35Z</time>
      </trkpt>
      <trkpt lat="47.864216" lon="2.211122">
        <ele>110</ele>
        <time>2025-04-07T18:36:49Z</time>
      </trkpt>
      <trkpt lat="47.864218" lon="2.210983">
        <ele>110</ele>
        <time>2025-04-07T18:37:00Z</time>
      </trkpt>
      <trkpt lat="47.864198" lon="2.210811">
        <ele>111</ele>
        <time>2025-04-07T18:37:24Z</time>
      </trkpt>
      <trkpt lat="47.864153" lon="2.210637">
        <ele>110</ele>
        <time>2025-04-07T18:37:38Z</time>
      </trkpt>
      <trkpt lat="47.86409" lon="2.210512">
        <ele>108</ele>
        <time>2025-04-07T18:37:50Z</time>
      </trkpt>
      <trkpt lat="47.864108" lon="2.210383">
        <ele>109</ele>
        <time>2025-04-07T18:38:10Z</time>
      </trkpt>
      <trkpt lat="47.864108" lon="2.210249">
        <ele>109</ele>
        <time>2025-04-07T18:38:20Z</time>
      </trkpt>
      <trkpt lat="47.864101" lon="2.21011">
        <ele>109</ele>
        <time>2025-04-07T18:38:31Z</time>
      </trkpt>
      <trkpt lat="47.864061" lon="2.209895">
        <ele>110</ele>
        <time>2025-04-07T18:38:58Z</time>
      </trkpt>
      <trkpt lat="47.864033" lon="2.209724">
        <ele>109</ele>
        <time>2025-04-07T18:39:12Z</time>
      </trkpt>
      <trkpt lat="47.864004" lon="2.209557">
        <ele>109</ele>
        <time>2025-04-07T18:39:25Z</time>
      </trkpt>
      <trkpt lat="47.863979" lon="2.209471">
        <ele>110</ele>
        <time>2025-04-07T18:39:42Z</time>
      </trkpt>
      <trkpt lat="47.863925" lon="2.209327">
        <ele>110</ele>
        <time>2025-04-07T18:39:55Z</time>
      </trkpt>
      <trkpt lat="47.863867" lon="2.209144">
        <ele>110</ele>
        <time>2025-04-07T18:40:11Z</time>
      </trkpt>
      <trkpt lat="47.863802" lon="2.208973">
        <ele>109</ele>
        <time>2025-04-07T18:40:26Z</time>
      </trkpt>
      <trkpt lat="47.863748" lon="2.208779">
        <ele>110</ele>
        <time>2025-04-07T18:40:52Z</time>
      </trkpt>
      <trkpt lat="47.863691" lon="2.208623">
        <ele>110</ele>
        <time>2025-04-07T18:41:06Z</time>
      </trkpt>
      <trkpt lat="47.863531" lon="2.208387">
        <ele>108</ele>
        <time>2025-04-07T18:41:32Z</time>
      </trkpt>
      <trkpt lat="47.863466" lon="2.208277">
        <ele>108</ele>
        <time>2025-04-07T18:41:43Z</time>
      </trkpt>
      <trkpt lat="47.863387" lon="2.208127">
        <ele>108</ele>
        <time>2025-04-07T18:41:58Z</time>
      </trkpt>
      <trkpt lat="47.86334" lon="2.208019">
        <ele>108</ele>
        <time>2025-04-07T18:42:08Z</time>
      </trkpt>
      <trkpt lat="47.863261" lon="2.207917">
        <ele>108</ele>
        <time>2025-04-07T18:42:20Z</time>
      </trkpt>
      <trkpt lat="47.863164" lon="2.207764">
        <ele>108</ele>
        <time>2025-04-07T18:42:36Z</time>
      </trkpt>
      <trkpt lat="47.862998" lon="2.207658">
        <ele>107</ele>
        <time>2025-04-07T18:42:57Z</time>
      </trkpt>
      <trkpt lat="47.862869" lon="2.207583">
        <ele>108</ele>
        <time>2025-04-07T18:43:23Z</time>
      </trkpt>
      <trkpt lat="47.862797" lon="2.207531">
        <ele>107</ele>
        <time>2025-04-07T18:43:32Z</time>
      </trkpt>
      <trkpt lat="47.862633" lon="2.207351">
        <ele>108</ele>
        <time>2025-04-07T18:44:06Z</time>
      </trkpt>
      <trkpt lat="47.862559" lon="2.207288">
        <ele>107</ele>
        <time>2025-04-07T18:44:16Z</time>
      </trkpt>
      <trkpt lat="47.862451" lon="2.207239">
        <ele>107</ele>
        <time>2025-04-07T18:44:29Z</time>
      </trkpt>
      <trkpt lat="47.862323" lon="2.207218">
        <ele>107</ele>
        <time>2025-04-07T18:44:44Z</time>
      </trkpt>
      <trkpt lat="47.862246" lon="2.207188">
        <ele>107</ele>
        <time>2025-04-07T18:44:53Z</time>
      </trkpt>
      <trkpt lat="47.862142" lon="2.207097">
        <ele>107</ele>
        <time>2025-04-07T18:45:07Z</time>
      </trkpt>
      <trkpt lat="47.862007" lon="2.207029">
        <ele>108</ele>
        <time>2025-04-07T18:45:34Z</time>
      </trkpt>
      <trkpt lat="47.861793" lon="2.20696">
        <ele>108</ele>
        <time>2025-04-07T18:45:59Z</time>
      </trkpt>
      <trkpt lat="47.861602" lon="2.206898">
        <ele>107</ele>
        <time>2025-04-07T18:46:21Z</time>
      </trkpt>
      <trkpt lat="47.861411" lon="2.206903">
        <ele>106</ele>
        <time>2025-04-07T18:46:43Z</time>
      </trkpt>
      <trkpt lat="47.861263" lon="2.206891">
        <ele>106</ele>
        <time>2025-04-07T18:47:00Z</time>
      </trkpt>
      <trkpt lat="47.861001" lon="2.20686">
        <ele>106</ele>
        <time>2025-04-07T18:47:30Z</time>
      </trkpt>
      <trkpt lat="47.860754" lon="2.206832">
        <ele>106</ele>
        <time>2025-04-07T18:47:58Z</time>
      </trkpt>
      <trkpt lat="47.860601" lon="2.206816">
        <ele>106</ele>
        <time>2025-04-07T18:48:16Z</time>
      </trkpt>
      <trkpt lat="47.860459" lon="2.206767">
        <ele>106</ele>
        <time>2025-04-07T18:48:33Z</time>
      </trkpt>
      <trkpt lat="47.860378" lon="2.20673">
        <ele>106</ele>
        <time>2025-04-07T18:48:43Z</time>
      </trkpt>
      <trkpt lat="47.860284" lon="2.206671">
        <ele>106</ele>
        <time>2025-04-07T18:48:55Z</time>
      </trkpt>
      <trkpt lat="47.860223" lon="2.20666">
        <ele>107</ele>
        <time>2025-04-07T18:49:12Z</time>
      </trkpt>
      <trkpt lat="47.860083" lon="2.20666">
        <ele>107</ele>
        <time>2025-04-07T18:49:28Z</time>
      </trkpt>
      <trkpt lat="47.859924" lon="2.206655">
        <ele>106</ele>
        <time>2025-04-07T18:49:46Z</time>
      </trkpt>
      <trkpt lat="47.859798" lon="2.206676">
        <ele>106</ele>
        <time>2025-04-07T18:50:01Z</time>
      </trkpt>
      <trkpt lat="47.859683" lon="2.206698">
        <ele>106</ele>
        <time>2025-04-07T18:50:14Z</time>
      </trkpt>
      <trkpt lat="47.859595" lon="2.206714">
        <ele>106</ele>
        <time>2025-04-07T18:50:24Z</time>
      </trkpt>
      <trkpt lat="47.859314" lon="2.206724">
        <ele>105</ele>
        <time>2025-04-07T18:50:56Z</time>
      </trkpt>
      <trkpt lat="47.859185" lon="2.206724">
        <ele>107</ele>
        <time>2025-04-07T18:51:31Z</time>
      </trkpt>
      <trkpt lat="47.859104" lon="2.206721">
        <ele>107</ele>
        <time>2025-04-07T18:51:40Z</time>
      </trkpt>
      <trkpt lat="47.859034" lon="2.206746">
        <ele>106</ele>
        <time>2025-04-07T18:51:48Z</time>
      </trkpt>
      <trkpt lat="47.858956" lon="2.206848">
        <ele>105</ele>
        <time>2025-04-07T18:52:00Z</time>
      </trkpt>
      <trkpt lat="47.85882" lon="2.206901">
        <ele>105</ele>
        <time>2025-04-07T18:52:16Z</time>
      </trkpt>
      <trkpt lat="47.858717" lon="2.206939">
        <ele>105</ele>
        <time>2025-04-07T18:52:28Z</time>
      </trkpt>
      <trkpt lat="47.858632" lon="2.20695">
        <ele>105</ele>
        <time>2025-04-07T18:52:38Z</time>
      </trkpt>
      <trkpt lat="47.858532" lon="2.206885">
        <ele>105</ele>
        <time>2025-04-07T18:52:50Z</time>
      </trkpt>
      <trkpt lat="47.858429" lon="2.206778">
        <ele>105</ele>
        <time>2025-04-07T18:53:04Z</time>
      </trkpt>
      <trkpt lat="47.858298" lon="2.206644">
        <ele>106</ele>
        <time>2025-04-07T18:53:32Z</time>
      </trkpt>
      <trkpt lat="47.858134" lon="2.206424">
        <ele>106</ele>
        <time>2025-04-07T18:53:57Z</time>
      </trkpt>
      <trkpt lat="47.858071" lon="2.206301">
        <ele>106</ele>
        <time>2025-04-07T18:54:09Z</time>
      </trkpt>
      <trkpt lat="47.857992" lon="2.206188">
        <ele>106</ele>
        <time>2025-04-07T18:54:22Z</time>
      </trkpt>
      <trkpt lat="47.857868" lon="2.206104">
        <ele>106</ele>
        <time>2025-04-07T18:54:38Z</time>
      </trkpt>
      <trkpt lat="47.857761" lon="2.206102">
        <ele>106</ele>
        <time>2025-04-07T18:54:50Z</time>
      </trkpt>
      <trkpt lat="47.857659" lon="2.206006">
        <ele>106</ele>
        <time>2025-04-07T18:55:04Z</time>
      </trkpt>
      <trkpt lat="47.857565" lon="2.205941">
        <ele>106</ele>
        <time>2025-04-07T18:55:16Z</time>
      </trkpt>
      <trkpt lat="47.857428" lon="2.20578">
        <ele>106</ele>
        <time>2025-04-07T18:55:36Z</time>
      </trkpt>
      <trkpt lat="47.857376" lon="2.205603">
        <ele>106</ele>
        <time>2025-04-07T18:55:51Z</time>
      </trkpt>
      <trkpt lat="47.857333" lon="2.205464">
        <ele>106</ele>
        <time>2025-04-07T18:56:03Z</time>
      </trkpt>
      <trkpt lat="47.857301" lon="2.205356">
        <ele>106</ele>
        <time>2025-04-07T18:56:12Z</time>
      </trkpt>
      <trkpt lat="47.857247" lon="2.205233">
        <ele>106</ele>
        <time>2025-04-07T18:56:23Z</time>
      </trkpt>
      <trkpt lat="47.857182" lon="2.205018">
        <ele>106</ele>
        <time>2025-04-07T18:56:41Z</time>
      </trkpt>
      <trkpt lat="47.857113" lon="2.204906">
        <ele>106</ele>
        <time>2025-04-07T18:56:53Z</time>
      </trkpt>
      <trkpt lat="47.857038" lon="2.204836">
        <ele>105</ele>
        <time>2025-04-07T18:57:03Z</time>
      </trkpt>
      <trkpt lat="47.856975" lon="2.204825">
        <ele>105</ele>
        <time>2025-04-07T18:57:10Z</time>
      </trkpt>
      <trkpt lat="47.856851" lon="2.204938">
        <ele>105</ele>
        <time>2025-04-07T18:57:27Z</time>
      </trkpt>
      <trkpt lat="47.856739" lon="2.205088">
        <ele>105</ele>
        <time>2025-04-07T18:57:44Z</time>
      </trkpt>
      <trkpt lat="47.856691" lon="2.205133">
        <ele>105</ele>
        <time>2025-04-07T18:57:50Z</time>
      </trkpt>
      <trkpt lat="47.856639" lon="2.20513">
        <ele>105</ele>
        <time>2025-04-07T18:57:56Z</time>
      </trkpt>
      <trkpt lat="47.856555" lon="2.205051">
        <ele>105</ele>
        <time>2025-04-07T18:58:07Z</time>
      </trkpt>
      <trkpt lat="47.856464" lon="2.204933">
        <ele>105</ele>
        <time>2025-04-07T18:58:21Z</time>
      </trkpt>
      <trkpt lat="47.85639" lon="2.204819">
        <ele>105</ele>
        <time>2025-04-07T18:58:33Z</time>
      </trkpt>
      <trkpt lat="47.856341" lon="2.204697">
        <ele>105</ele>
        <time>2025-04-07T18:58:44Z</time>
      </trkpt>
      <trkpt lat="47.856308" lon="2.204556">
        <ele>106</ele>
        <time>2025-04-07T18:59:06Z</time>
      </trkpt>
      <trkpt lat="47.856298" lon="2.204407">
        <ele>107</ele>
        <time>2025-04-07T18:59:28Z</time>
      </trkpt>
      <trkpt lat="47.856286" lon="2.204283">
        <ele>107</ele>
        <time>2025-04-07T18:59:38Z</time>
      </trkpt>
      <trkpt lat="47.856255" lon="2.204182">
        <ele>108</ele>
        <time>2025-04-07T18:59:57Z</time>
      </trkpt>
      <trkpt lat="47.856195" lon="2.204123">
        <ele>108</ele>
        <time>2025-04-07T19:00:05Z</time>
      </trkpt>
      <trkpt lat="47.856088" lon="2.204031">
        <ele>107</ele>
        <time>2025-04-07T19:00:19Z</time>
      </trkpt>
      <trkpt lat="47.85603" lon="2.203993">
        <ele>107</ele>
        <time>2025-04-07T19:00:26Z</time>
      </trkpt>
      <trkpt lat="47.856" lon="2.203956">
        <ele>107</ele>
        <time>2025-04-07T19:00:30Z</time>
      </trkpt>
      <trkpt lat="47.855873" lon="2.203892">
        <ele>106</ele>
        <time>2025-04-07T19:00:45Z</time>
      </trkpt>
      <trkpt lat="47.855749" lon="2.203881">
        <ele>106</ele>
        <time>2025-04-07T19:00:59Z</time>
      </trkpt>
      <trkpt lat="47.85569" lon="2.20391">
        <ele>106</ele>
        <time>2025-04-07T19:01:06Z</time>
      </trkpt>
      <trkpt lat="47.85566" lon="2.203966">
        <ele>106</ele>
        <time>2025-04-07T19:01:12Z</time>
      </trkpt>
      <trkpt lat="47.85558" lon="2.204101">
        <ele>107</ele>
        <time>2025-04-07T19:01:36Z</time>
      </trkpt>
      <trkpt lat="47.855512" lon="2.20423">
        <ele>107</ele>
        <time>2025-04-07T19:01:49Z</time>
      </trkpt>
      <trkpt lat="47.855507" lon="2.204514">
        <ele>107</ele>
        <time>2025-04-07T19:02:11Z</time>
      </trkpt>
      <trkpt lat="47.855528" lon="2.204739">
        <ele>108</ele>
        <time>2025-04-07T19:02:39Z</time>
      </trkpt>
      <trkpt lat="47.855528" lon="2.204851">
        <ele>108</ele>
        <time>2025-04-07T19:02:48Z</time>
      </trkpt>
      <trkpt lat="47.8555" lon="2.205073">
        <ele>108</ele>
        <time>2025-04-07T19:03:05Z</time>
      </trkpt>
      <trkpt lat="47.855418" lon="2.205136">
        <ele>108</ele>
        <time>2025-04-07T19:03:16Z</time>
      </trkpt>
      <trkpt lat="47.855353" lon="2.205131">
        <ele>108</ele>
        <time>2025-04-07T19:03:23Z</time>
      </trkpt>
      <trkpt lat="47.855274" lon="2.205153">
        <ele>108</ele>
        <time>2025-04-07T19:03:32Z</time>
      </trkpt>
      <trkpt lat="47.855204" lon="2.205126">
        <ele>109</ele>
        <time>2025-04-07T19:03:51Z</time>
      </trkpt>
      <trkpt lat="47.855165" lon="2.205088">
        <ele>109</ele>
        <time>2025-04-07T19:03:56Z</time>
      </trkpt>
      <trkpt lat="47.85512" lon="2.205104">
        <ele>109</ele>
        <time>2025-04-07T19:04:01Z</time>
      </trkpt>
      <trkpt lat="47.85501" lon="2.205106">
        <ele>108</ele>
        <time>2025-04-07T19:04:14Z</time>
      </trkpt>
      <trkpt lat="47.854913" lon="2.205048">
        <ele>109</ele>
        <time>2025-04-07T19:04:36Z</time>
      </trkpt>
      <trkpt lat="47.854843" lon="2.204983">
        <ele>109</ele>
        <time>2025-04-07T19:04:45Z</time>
      </trkpt>
      <trkpt lat="47.854772" lon="2.204897">
        <ele>110</ele>
        <time>2025-04-07T19:05:06Z</time>
      </trkpt>
      <trkpt lat="47.854671" lon="2.204724">
        <ele>108</ele>
        <time>2025-04-07T19:05:24Z</time>
      </trkpt>
      <trkpt lat="47.854567" lon="2.204534">
        <ele>109</ele>
        <time>2025-04-07T19:05:53Z</time>
      </trkpt>
      <trkpt lat="47.854464" lon="2.204343">
        <ele>109</ele>
        <time>2025-04-07T19:06:12Z</time>
      </trkpt>
      <trkpt lat="47.854357" lon="2.204163">
        <ele>110</ele>
        <time>2025-04-07T19:06:41Z</time>
      </trkpt>
      <trkpt lat="47.854264" lon="2.203989">
        <ele>108</ele>
        <time>2025-04-07T19:06:58Z</time>
      </trkpt>
      <trkpt lat="47.854158" lon="2.203791">
        <ele>109</ele>
        <time>2025-04-07T19:07:28Z</time>
      </trkpt>
      <trkpt lat="47.854068" lon="2.203611">
        <ele>110</ele>
        <time>2025-04-07T19:07:56Z</time>
      </trkpt>
      <trkpt lat="47.853959" lon="2.203417">
        <ele>109</ele>
        <time>2025-04-07T19:08:15Z</time>
      </trkpt>
      <trkpt lat="47.85387" lon="2.203246">
        <ele>108</ele>
        <time>2025-04-07T19:08:32Z</time>
      </trkpt>
      <trkpt lat="47.853778" lon="2.20308">
        <ele>109</ele>
        <time>2025-04-07T19:08:59Z</time>
      </trkpt>
      <trkpt lat="47.853688" lon="2.202903">
        <ele>109</ele>
        <time>2025-04-07T19:09:16Z</time>
      </trkpt>
      <trkpt lat="47.853596" lon="2.202728">
        <ele>109</ele>
        <time>2025-04-07T19:09:33Z</time>
      </trkpt>
      <trkpt lat="47.853494" lon="2.202525">
        <ele>108</ele>
        <time>2025-04-07T19:09:52Z</time>
      </trkpt>
      <trkpt lat="47.853372" lon="2.202288">
        <ele>108</ele>
        <time>2025-04-07T19:10:15Z</time>
      </trkpt>
      <trkpt lat="47.853235" lon="2.201991">
        <ele>109</ele>
        <time>2025-04-07T19:10:53Z</time>
      </trkpt>
      <trkpt lat="47.853098" lon="2.201712">
        <ele>108</ele>
        <time>2025-04-07T19:11:20Z</time>
      </trkpt>
      <trkpt lat="47.852961" lon="2.20143">
        <ele>109</ele>
        <time>2025-04-07T19:11:57Z</time>
      </trkpt>
      <trkpt lat="47.852817" lon="2.20113">
        <ele>108</ele>
        <time>2025-04-07T19:12:25Z</time>
      </trkpt>
      <trkpt lat="47.852709" lon="2.20091">
        <ele>109</ele>
        <time>2025-04-07T19:12:56Z</time>
      </trkpt>
      <trkpt lat="47.852607" lon="2.200701">
        <ele>109</ele>
        <time>2025-04-07T19:13:16Z</time>
      </trkpt>
      <trkpt lat="47.852506" lon="2.200484">
        <ele>108</ele>
        <time>2025-04-07T19:13:36Z</time>
      </trkpt>
      <trkpt lat="47.852397" lon="2.200252">
        <ele>108</ele>
        <time>2025-04-07T19:13:58Z</time>
      </trkpt>
      <trkpt lat="47.852311" lon="2.200033">
        <ele>109</ele>
        <time>2025-04-07T19:14:28Z</time>
      </trkpt>
      <trkpt lat="47.852219" lon="2.199815">
        <ele>108</ele>
        <time>2025-04-07T19:14:48Z</time>
      </trkpt>
      <trkpt lat="47.85213" lon="2.199609">
        <ele>109</ele>
        <time>2025-04-07T19:15:17Z</time>
      </trkpt>
      <trkpt lat="47.852041" lon="2.199396">
        <ele>108</ele>
        <time>2025-04-07T19:15:36Z</time>
      </trkpt>
      <trkpt lat="47.851966" lon="2.199218">
        <ele>107</ele>
        <time>2025-04-07T19:15:52Z</time>
      </trkpt>
      <trkpt lat="47.851906" lon="2.199048">
        <ele>108</ele>
        <time>2025-04-07T19:16:17Z</time>
      </trkpt>
      <trkpt lat="47.851803" lon="2.19872">
        <ele>108</ele>
        <time>2025-04-07T19:16:45Z</time>
      </trkpt>
      <trkpt lat="47.851705" lon="2.198389">
        <ele>108</ele>
        <time>2025-04-07T19:17:13Z</time>
      </trkpt>
      <trkpt lat="47.85161" lon="2.198058">
        <ele>108</ele>
        <time>2025-04-07T19:17:41Z</time>
      </trkpt>
      <trkpt lat="47.85152" lon="2.197734">
        <ele>108</ele>
        <time>2025-04-07T19:18:08Z</time>
      </trkpt>
      <trkpt lat="47.851418" lon="2.197401">
        <ele>107</ele>
        <time>2025-04-07T19:18:36Z</time>
      </trkpt>
      <trkpt lat="47.851314" lon="2.197053">
        <ele>108</ele>
        <time>2025-04-07T19:19:16Z</time>
      </trkpt>
      <trkpt lat="47.851214" lon="2.196719">
        <ele>108</ele>
        <time>2025-04-07T19:19:44Z</time>
      </trkpt>
      <trkpt lat="47.851129" lon="2.196458">
        <ele>108</ele>
        <time>2025-04-07T19:20:06Z</time>
      </trkpt>
      <trkpt lat="47.851049" lon="2.196183">
        <ele>107</ele>
        <time>2025-04-07T19:20:29Z</time>
      </trkpt>
      <trkpt lat="47.850979" lon="2.195909">
        <ele>108</ele>
        <time>2025-04-07T19:21:02Z</time>
      </trkpt>
      <trkpt lat="47.850927" lon="2.195648">
        <ele>108</ele>
        <time>2025-04-07T19:21:23Z</time>
      </trkpt>
      <trkpt lat="47.850899" lon="2.195335">
        <ele>108</ele>
        <time>2025-04-07T19:21:47Z</time>
      </trkpt>
      <trkpt lat="47.850885" lon="2.194992">
        <ele>108</ele>
        <time>2025-04-07T19:22:13Z</time>
      </trkpt>
      <trkpt lat="47.850879" lon="2.194668">
        <ele>108</ele>
        <time>2025-04-07T19:22:38Z</time>
      </trkpt>
      <trkpt lat="47.850879" lon="2.194368">
        <ele>108</ele>
        <time>2025-04-07T19:23:01Z</time>
      </trkpt>
      <trkpt lat="47.850866" lon="2.193746">
        <ele>108</ele>
        <time>2025-04-07T19:23:49Z</time>
      </trkpt>
      <trkpt lat="47.850859" lon="2.193411">
        <ele>108</ele>
        <time>2025-04-07T19:24:15Z</time>
      </trkpt>
      <trkpt lat="47.850857" lon="2.193091">
        <ele>108</ele>
        <time>2025-04-07T19:24:40Z</time>
      </trkpt>
      <trkpt lat="47.85083" lon="2.192788">
        <ele>108</ele>
        <time>2025-04-07T19:25:03Z</time>
      </trkpt>
      <trkpt lat="47.850809" lon="2.192455">
        <ele>107</ele>
        <time>2025-04-07T19:25:29Z</time>
      </trkpt>
      <trkpt lat="47.850809" lon="2.192193">
        <ele>107</ele>
        <time>2025-04-07T19:25:49Z</time>
      </trkpt>
      <trkpt lat="47.850809" lon="2.191918">
        <ele>107</ele>
        <time>2025-04-07T19:26:10Z</time>
      </trkpt>
      <trkpt lat="47.850766" lon="2.191835">
        <ele>107</ele>
        <time>2025-04-07T19:26:18Z</time>
      </trkpt>
      <trkpt lat="47.850674" lon="2.191706">
        <ele>107</ele>
        <time>2025-04-07T19:26:32Z</time>
      </trkpt>
      <trkpt lat="47.85052" lon="2.191489">
        <ele>107</ele>
        <time>2025-04-07T19:26:56Z</time>
      </trkpt>
      <trkpt lat="47.850444" lon="2.191309">
        <ele>106</ele>
        <time>2025-04-07T19:27:12Z</time>
      </trkpt>
      <trkpt lat="47.850424" lon="2.191199">
        <ele>106</ele>
        <time>2025-04-07T19:27:21Z</time>
      </trkpt>
      <trkpt lat="47.850426" lon="2.191052">
        <ele>106</ele>
        <time>2025-04-07T19:27:32Z</time>
      </trkpt>
      <trkpt lat="47.850411" lon="2.190803">
        <ele>105</ele>
        <time>2025-04-07T19:27:51Z</time>
      </trkpt>
      <trkpt lat="47.850353" lon="2.190439">
        <ele>105</ele>
        <time>2025-04-07T19:28:20Z</time>
      </trkpt>
      <trkpt lat="47.850314" lon="2.190219">
        <ele>105</ele>
        <time>2025-04-07T19:28:37Z</time>
      </trkpt>
      <trkpt lat="47.850252" lon="2.190006">
        <ele>106</ele>
        <time>2025-04-07T19:29:05Z</time>
      </trkpt>
      <trkpt lat="47.850188" lon="2.189763">
        <ele>106</ele>
        <time>2025-04-07T19:29:25Z</time>
      </trkpt>
      <trkpt lat="47.850033" lon="2.189505">
        <ele>106</ele>
        <time>2025-04-07T19:29:52Z</time>
      </trkpt>
      <trkpt lat="47.849795" lon="2.189169">
        <ele>106</ele>
        <time>2025-04-07T19:30:30Z</time>
      </trkpt>
      <trkpt lat="47.849561" lon="2.188727">
        <ele>106</ele>
        <time>2025-04-07T19:31:13Z</time>
      </trkpt>
      <trkpt lat="47.849335" lon="2.188325">
        <ele>106</ele>
        <time>2025-04-07T19:31:53Z</time>
      </trkpt>
      <trkpt lat="47.849245" lon="2.188046">
        <ele>105</ele>
        <time>2025-04-07T19:32:17Z</time>
      </trkpt>
      <trkpt lat="47.849198" lon="2.187783">
        <ele>105</ele>
        <time>2025-04-07T19:32:38Z</time>
      </trkpt>
      <trkpt lat="47.849183" lon="2.187306">
        <ele>105</ele>
        <time>2025-04-07T19:33:15Z</time>
      </trkpt>
      <trkpt lat="47.84918" lon="2.186882">
        <ele>105</ele>
        <time>2025-04-07T19:33:48Z</time>
      </trkpt>
      <trkpt lat="47.849209" lon="2.186512">
        <ele>104</ele>
        <time>2025-04-07T19:34:17Z</time>
      </trkpt>
      <trkpt lat="47.849245" lon="2.186179">
        <ele>104</ele>
        <time>2025-04-07T19:34:43Z</time>
      </trkpt>
      <trkpt lat="47.849315" lon="2.185735">
        <ele>104</ele>
        <time>2025-04-07T19:35:18Z</time>
      </trkpt>
      <trkpt lat="47.849381" lon="2.185241">
        <ele>105</ele>
        <time>2025-04-07T19:36:07Z</time>
      </trkpt>
      <trkpt lat="47.849419" lon="2.184748">
        <ele>105</ele>
        <time>2025-04-07T19:36:45Z</time>
      </trkpt>
      <trkpt lat="47.849502" lon="2.184233">
        <ele>104</ele>
        <time>2025-04-07T19:37:26Z</time>
      </trkpt>
      <trkpt lat="47.849554" lon="2.183991">
        <ele>105</ele>
        <time>2025-04-07T19:37:56Z</time>
      </trkpt>
      <trkpt lat="47.849642" lon="2.183616">
        <ele>104</ele>
        <time>2025-04-07T19:38:27Z</time>
      </trkpt>
      <trkpt lat="47.849752" lon="2.183234">
        <ele>105</ele>
        <time>2025-04-07T19:39:09Z</time>
      </trkpt>
      <trkpt lat="47.849858" lon="2.182854">
        <ele>105</ele>
        <time>2025-04-07T19:39:41Z</time>
      </trkpt>
      <trkpt lat="47.849943" lon="2.182483">
        <ele>105</ele>
        <time>2025-04-07T19:40:11Z</time>
      </trkpt>
      <trkpt lat="47.849993" lon="2.182307">
        <ele>104</ele>
        <time>2025-04-07T19:40:26Z</time>
      </trkpt>
      <trkpt lat="47.850056" lon="2.182162">
        <ele>104</ele>
        <time>2025-04-07T19:40:39Z</time>
      </trkpt>
      <trkpt lat="47.85013" lon="2.181915">
        <ele>104</ele>
        <time>2025-04-07T19:41:00Z</time>
      </trkpt>
      <trkpt lat="47.850202" lon="2.181604">
        <ele>104</ele>
        <time>2025-04-07T19:41:25Z</time>
      </trkpt>
      <trkpt lat="47.850279" lon="2.181272">
        <ele>104</ele>
        <time>2025-04-07T19:41:52Z</time>
      </trkpt>
      <trkpt lat="47.850411" lon="2.18089">
        <ele>104</ele>
        <time>2025-04-07T19:42:25Z</time>
      </trkpt>
      <trkpt lat="47.850566" lon="2.180515">
        <ele>105</ele>
        <time>2025-04-07T19:43:09Z</time>
      </trkpt>
      <trkpt lat="47.850885" lon="2.179806">
        <ele>105</ele>
        <time>2025-04-07T19:44:15Z</time>
      </trkpt>
      <trkpt lat="47.85106" lon="2.179417">
        <ele>105</ele>
        <time>2025-04-07T19:44:51Z</time>
      </trkpt>
      <trkpt lat="47.851211" lon="2.17906">
        <ele>105</ele>
        <time>2025-04-07T19:45:23Z</time>
      </trkpt>
      <trkpt lat="47.851378" lon="2.178701">
        <ele>105</ele>
        <time>2025-04-07T19:45:57Z</time>
      </trkpt>
      <trkpt lat="47.851542" lon="2.178336">
        <ele>105</ele>
        <time>2025-04-07T19:46:31Z</time>
      </trkpt>
      <trkpt lat="47.851733" lon="2.177958">
        <ele>104</ele>
        <time>2025-04-07T19:47:07Z</time>
      </trkpt>
      <trkpt lat="47.851832" lon="2.177783">
        <ele>104</ele>
        <time>2025-04-07T19:47:25Z</time>
      </trkpt>
      <trkpt lat="47.851922" lon="2.177625">
        <ele>104</ele>
        <time>2025-04-07T19:47:41Z</time>
      </trkpt>
      <trkpt lat="47.852326" lon="2.176867">
        <ele>105</ele>
        <time>2025-04-07T19:49:06Z</time>
      </trkpt>
      <trkpt lat="47.852412" lon="2.176722">
        <ele>105</ele>
        <time>2025-04-07T19:49:21Z</time>
      </trkpt>
      <trkpt lat="47.852524" lon="2.176588">
        <ele>105</ele>
        <time>2025-04-07T19:49:37Z</time>
      </trkpt>
      <trkpt lat="47.852598" lon="2.176453">
        <ele>105</ele>
        <time>2025-04-07T19:49:50Z</time>
      </trkpt>
      <trkpt lat="47.852678" lon="2.176278">
        <ele>105</ele>
        <time>2025-04-07T19:50:06Z</time>
      </trkpt>
      <trkpt lat="47.852876" lon="2.175763">
        <ele>105</ele>
        <time>2025-04-07T19:50:52Z</time>
      </trkpt>
      <trkpt lat="47.853044" lon="2.175199">
        <ele>105</ele>
        <time>2025-04-07T19:51:39Z</time>
      </trkpt>
      <trkpt lat="47.853221" lon="2.174911">
        <ele>105</ele>
        <time>2025-04-07T19:52:09Z</time>
      </trkpt>
      <trkpt lat="47.853289" lon="2.17477">
        <ele>105</ele>
        <time>2025-04-07T19:52:22Z</time>
      </trkpt>
      <trkpt lat="47.853362" lon="2.174624">
        <ele>104</ele>
        <time>2025-04-07T19:52:36Z</time>
      </trkpt>
      <trkpt lat="47.853416" lon="2.174455">
        <ele>105</ele>
        <time>2025-04-07T19:53:01Z</time>
      </trkpt>
      <trkpt lat="47.853477" lon="2.174342">
        <ele>104</ele>
        <time>2025-04-07T19:53:12Z</time>
      </trkpt>
      <trkpt lat="47.853633" lon="2.174176">
        <ele>105</ele>
        <time>2025-04-07T19:53:44Z</time>
      </trkpt>
      <trkpt lat="47.853808" lon="2.173988">
        <ele>105</ele>
        <time>2025-04-07T19:54:09Z</time>
      </trkpt>
      <trkpt lat="47.853912" lon="2.173862">
        <ele>105</ele>
        <time>2025-04-07T19:54:24Z</time>
      </trkpt>
      <trkpt lat="47.854013" lon="2.173712">
        <ele>105</ele>
        <time>2025-04-07T19:54:40Z</time>
      </trkpt>
      <trkpt lat="47.854118" lon="2.173548">
        <ele>105</ele>
        <time>2025-04-07T19:54:57Z</time>
      </trkpt>
      <trkpt lat="47.854247" lon="2.173398">
        <ele>105</ele>
        <time>2025-04-07T19:55:16Z</time>
      </trkpt>
      <trkpt lat="47.854405" lon="2.173173">
        <ele>104</ele>
        <time>2025-04-07T19:55:41Z</time>
      </trkpt>
      <trkpt lat="47.854564" lon="2.17298">
        <ele>104</ele>
        <time>2025-04-07T19:56:04Z</time>
      </trkpt>
      <trkpt lat="47.854877" lon="2.17262">
        <ele>104</ele>
        <time>2025-04-07T19:56:49Z</time>
      </trkpt>
      <trkpt lat="47.854953" lon="2.172518">
        <ele>104</ele>
        <time>2025-04-07T19:57:01Z</time>
      </trkpt>
      <trkpt lat="47.855028" lon="2.172422">
        <ele>104</ele>
        <time>2025-04-07T19:57:12Z</time>
      </trkpt>
      <trkpt lat="47.855203" lon="2.172196">
        <ele>104</ele>
        <time>2025-04-07T19:57:39Z</time>
      </trkpt>
      <trkpt lat="47.85537" lon="2.171993">
        <ele>104</ele>
        <time>2025-04-07T19:58:04Z</time>
      </trkpt>
      <trkpt lat="47.855547" lon="2.171767">
        <ele>104</ele>
        <time>2025-04-07T19:58:31Z</time>
      </trkpt>
      <trkpt lat="47.855685" lon="2.171526">
        <ele>104</ele>
        <time>2025-04-07T19:58:55Z</time>
      </trkpt>
      <trkpt lat="47.855817" lon="2.171284">
        <ele>104</ele>
        <time>2025-04-07T19:59:19Z</time>
      </trkpt>
      <trkpt lat="47.855934" lon="2.171102">
        <ele>104</ele>
        <time>2025-04-07T19:59:38Z</time>
      </trkpt>
      <trkpt lat="47.856061" lon="2.170904">
        <ele>104</ele>
        <time>2025-04-07T19:59:59Z</time>
      </trkpt>
      <trkpt lat="47.856088" lon="2.170761">
        <ele>105</ele>
        <time>2025-04-07T20:00:21Z</time>
      </trkpt>
      <trkpt lat="47.856133" lon="2.170603">
        <ele>103</ele>
        <time>2025-04-07T20:00:34Z</time>
      </trkpt>
      <trkpt lat="47.856173" lon="2.170521">
        <ele>103</ele>
        <time>2025-04-07T20:00:42Z</time>
      </trkpt>
      <trkpt lat="47.856229" lon="2.170441">
        <ele>104</ele>
        <time>2025-04-07T20:01:01Z</time>
      </trkpt>
      <trkpt lat="47.856287" lon="2.170403">
        <ele>104</ele>
        <time>2025-04-07T20:01:08Z</time>
      </trkpt>
      <trkpt lat="47.856366" lon="2.170387">
        <ele>104</ele>
        <time>2025-04-07T20:01:17Z</time>
      </trkpt>
      <trkpt lat="47.856463" lon="2.170342">
        <ele>105</ele>
        <time>2025-04-07T20:01:39Z</time>
      </trkpt>
      <trkpt lat="47.856573" lon="2.170232">
        <ele>106</ele>
        <time>2025-04-07T20:02:04Z</time>
      </trkpt>
      <trkpt lat="47.856708" lon="2.170119">
        <ele>106</ele>
        <time>2025-04-07T20:02:22Z</time>
      </trkpt>
      <trkpt lat="47.856783" lon="2.170012">
        <ele>107</ele>
        <time>2025-04-07T20:02:44Z</time>
      </trkpt>
      <trkpt lat="47.856853" lon="2.169801">
        <ele>107</ele>
        <time>2025-04-07T20:03:02Z</time>
      </trkpt>
      <trkpt lat="47.85688" lon="2.169683">
        <ele>107</ele>
        <time>2025-04-07T20:03:12Z</time>
      </trkpt>
      <trkpt lat="47.856911" lon="2.169571">
        <ele>108</ele>
        <time>2025-04-07T20:03:32Z</time>
      </trkpt>
      <trkpt lat="47.856972" lon="2.169364">
        <ele>108</ele>
        <time>2025-04-07T20:03:49Z</time>
      </trkpt>
      <trkpt lat="47.857017" lon="2.169121">
        <ele>108</ele>
        <time>2025-04-07T20:04:08Z</time>
      </trkpt>
      <trkpt lat="47.857053" lon="2.168849">
        <ele>108</ele>
        <time>2025-04-07T20:04:29Z</time>
      </trkpt>
      <trkpt lat="47.857071" lon="2.16858">
        <ele>109</ele>
        <time>2025-04-07T20:05:00Z</time>
      </trkpt>
      <trkpt lat="47.857111" lon="2.16828">
        <ele>110</ele>
        <time>2025-04-07T20:05:34Z</time>
      </trkpt>
      <trkpt lat="47.857152" lon="2.16798">
        <ele>109</ele>
        <time>2025-04-07T20:05:58Z</time>
      </trkpt>
      <trkpt lat="47.857197" lon="2.167685">
        <ele>110</ele>
        <time>2025-04-07T20:06:32Z</time>
      </trkpt>
      <trkpt lat="47.857244" lon="2.167382">
        <ele>112</ele>
        <time>2025-04-07T20:07:16Z</time>
      </trkpt>
      <trkpt lat="47.857283" lon="2.167103">
        <ele>112</ele>
        <time>2025-04-07T20:07:38Z</time>
      </trkpt>
      <trkpt lat="47.857323" lon="2.166777">
        <ele>112</ele>
        <time>2025-04-07T20:08:03Z</time>
      </trkpt>
      <trkpt lat="47.857364" lon="2.166486">
        <ele>113</ele>
        <time>2025-04-07T20:08:36Z</time>
      </trkpt>
      <trkpt lat="47.857404" lon="2.16621">
        <ele>112</ele>
        <time>2025-04-07T20:08:58Z</time>
      </trkpt>
      <trkpt lat="47.857442" lon="2.165923">
        <ele>112</ele>
        <time>2025-04-07T20:09:20Z</time>
      </trkpt>
      <trkpt lat="47.857481" lon="2.165602">
        <ele>110</ele>
        <time>2025-04-07T20:09:45Z</time>
      </trkpt>
      <trkpt lat="47.857514" lon="2.165394">
        <ele>110</ele>
        <time>2025-04-07T20:10:01Z</time>
      </trkpt>
      <trkpt lat="47.857557" lon="2.165136">
        <ele>110</ele>
        <time>2025-04-07T20:10:21Z</time>
      </trkpt>
      <trkpt lat="47.857668" lon="2.164728">
        <ele>109</ele>
        <time>2025-04-07T20:10:55Z</time>
      </trkpt>
      <trkpt lat="47.85771" lon="2.164611">
        <ele>110</ele>
        <time>2025-04-07T20:11:15Z</time>
      </trkpt>
      <trkpt lat="47.857744" lon="2.164481">
        <ele>110</ele>
        <time>2025-04-07T20:11:26Z</time>
      </trkpt>
      <trkpt lat="47.857811" lon="2.164214">
        <ele>109</ele>
        <time>2025-04-07T20:11:48Z</time>
      </trkpt>
      <trkpt lat="47.85788" lon="2.163955">
        <ele>109</ele>
        <time>2025-04-07T20:12:09Z</time>
      </trkpt>
      <trkpt lat="47.857955" lon="2.163576">
        <ele>107</ele>
        <time>2025-04-07T20:12:39Z</time>
      </trkpt>
      <trkpt lat="47.858064" lon="2.163193">
        <ele>104</ele>
        <time>2025-04-07T20:13:11Z</time>
      </trkpt>
      <trkpt lat="47.858111" lon="2.163047">
        <ele>102</ele>
        <time>2025-04-07T20:13:23Z</time>
      </trkpt>
      <trkpt lat="47.858165" lon="2.162903">
        <ele>104</ele>
        <time>2025-04-07T20:13:56Z</time>
      </trkpt>
      <trkpt lat="47.858294" lon="2.162448">
        <ele>105</ele>
        <time>2025-04-07T20:14:44Z</time>
      </trkpt>
      <trkpt lat="47.858331" lon="2.162302">
        <ele>106</ele>
        <time>2025-04-07T20:15:06Z</time>
      </trkpt>
      <trkpt lat="47.858372" lon="2.162127">
        <ele>106</ele>
        <time>2025-04-07T20:15:20Z</time>
      </trkpt>
      <trkpt lat="47.858414" lon="2.161808">
        <ele>108</ele>
        <time>2025-04-07T20:16:06Z</time>
      </trkpt>
      <trkpt lat="47.85845" lon="2.16147">
        <ele>108</ele>
        <time>2025-04-07T20:16:32Z</time>
      </trkpt>
      <trkpt lat="47.858489" lon="2.161097">
        <ele>108</ele>
        <time>2025-04-07T20:17:01Z</time>
      </trkpt>
      <trkpt lat="47.85853" lon="2.160754">
        <ele>109</ele>
        <time>2025-04-07T20:17:38Z</time>
      </trkpt>
      <trkpt lat="47.858575" lon="2.1604">
        <ele>109</ele>
        <time>2025-04-07T20:18:06Z</time>
      </trkpt>
      <trkpt lat="47.858626" lon="2.160017">
        <ele>109</ele>
        <time>2025-04-07T20:18:36Z</time>
      </trkpt>
      <trkpt lat="47.858678" lon="2.159657">
        <ele>109</ele>
        <time>2025-04-07T20:19:04Z</time>
      </trkpt>
      <trkpt lat="47.858732" lon="2.159306">
        <ele>109</ele>
        <time>2025-04-07T20:19:32Z</time>
      </trkpt>
      <trkpt lat="47.858775" lon="2.158949">
        <ele>108</ele>
        <time>2025-04-07T20:20:00Z</time>
      </trkpt>
      <trkpt lat="47.858833" lon="2.158596">
        <ele>108</ele>
        <time>2025-04-07T20:20:28Z</time>
      </trkpt>
      <trkpt lat="47.858883" lon="2.158214">
        <ele>108</ele>
        <time>2025-04-07T20:20:58Z</time>
      </trkpt>
      <trkpt lat="47.858943" lon="2.157794">
        <ele>107</ele>
        <time>2025-04-07T20:21:31Z</time>
      </trkpt>
      <trkpt lat="47.858991" lon="2.157394">
        <ele>107</ele>
        <time>2025-04-07T20:22:02Z</time>
      </trkpt>
      <trkpt lat="47.859029" lon="2.156984">
        <ele>108</ele>
        <time>2025-04-07T20:22:44Z</time>
      </trkpt>
      <trkpt lat="47.859052" lon="2.156579">
        <ele>107</ele>
        <time>2025-04-07T20:23:15Z</time>
      </trkpt>
      <trkpt lat="47.859097" lon="2.156195">
        <ele>108</ele>
        <time>2025-04-07T20:23:55Z</time>
      </trkpt>
      <trkpt lat="47.859159" lon="2.155787">
        <ele>108</ele>
        <time>2025-04-07T20:24:27Z</time>
      </trkpt>
      <trkpt lat="47.859189" lon="2.155577">
        <ele>108</ele>
        <time>2025-04-07T20:24:43Z</time>
      </trkpt>
      <trkpt lat="47.859221" lon="2.155372">
        <ele>107</ele>
        <time>2025-04-07T20:24:59Z</time>
      </trkpt>
      <trkpt lat="47.859261" lon="2.155213">
        <ele>107</ele>
        <time>2025-04-07T20:25:12Z</time>
      </trkpt>
      <trkpt lat="47.859304" lon="2.155085">
        <ele>108</ele>
        <time>2025-04-07T20:25:33Z</time>
      </trkpt>
      <trkpt lat="47.85941" lon="2.154803">
        <ele>108</ele>
        <time>2025-04-07T20:25:58Z</time>
      </trkpt>
      <trkpt lat="47.859502" lon="2.154553">
        <ele>108</ele>
        <time>2025-04-07T20:26:20Z</time>
      </trkpt>
      <trkpt lat="47.85961" lon="2.154235">
        <ele>109</ele>
        <time>2025-04-07T20:26:58Z</time>
      </trkpt>
      <trkpt lat="47.859704" lon="2.153998">
        <ele>110</ele>
        <time>2025-04-07T20:27:29Z</time>
      </trkpt>
      <trkpt lat="47.859822" lon="2.153754">
        <ele>112</ele>
        <time>2025-04-07T20:28:13Z</time>
      </trkpt>
      <trkpt lat="47.859927" lon="2.153509">
        <ele>111</ele>
        <time>2025-04-07T20:28:35Z</time>
      </trkpt>
      <trkpt lat="47.860044" lon="2.153244">
        <ele>112</ele>
        <time>2025-04-07T20:29:10Z</time>
      </trkpt>
      <trkpt lat="47.860138" lon="2.15304">
        <ele>112</ele>
        <time>2025-04-07T20:29:29Z</time>
      </trkpt>
      <trkpt lat="47.860211" lon="2.152823">
        <ele>113</ele>
        <time>2025-04-07T20:29:58Z</time>
      </trkpt>
      <trkpt lat="47.860262" lon="2.152595">
        <ele>113</ele>
        <time>2025-04-07T20:30:16Z</time>
      </trkpt>
      <trkpt lat="47.860289" lon="2.152386">
        <ele>112</ele>
        <time>2025-04-07T20:30:32Z</time>
      </trkpt>
      <trkpt lat="47.860364" lon="2.151978">
        <ele>113</ele>
        <time>2025-04-07T20:31:15Z</time>
      </trkpt>
      <trkpt lat="47.860442" lon="2.151664">
        <ele>112</ele>
        <time>2025-04-07T20:31:41Z</time>
      </trkpt>
      <trkpt lat="47.860512" lon="2.151423">
        <ele>113</ele>
        <time>2025-04-07T20:32:11Z</time>
      </trkpt>
      <trkpt lat="47.860577" lon="2.151195">
        <ele>112</ele>
        <time>2025-04-07T20:32:30Z</time>
      </trkpt>
      <trkpt lat="47.86064" lon="2.150964">
        <ele>112</ele>
        <time>2025-04-07T20:32:49Z</time>
      </trkpt>
      <trkpt lat="47.860729" lon="2.150729">
        <ele>112</ele>
        <time>2025-04-07T20:33:10Z</time>
      </trkpt>
      <trkpt lat="47.860868" lon="2.150221">
        <ele>113</ele>
        <time>2025-04-07T20:34:02Z</time>
      </trkpt>
      <trkpt lat="47.860935" lon="2.149972">
        <ele>112</ele>
        <time>2025-04-07T20:34:23Z</time>
      </trkpt>
      <trkpt lat="47.861006" lon="2.149725">
        <ele>112</ele>
        <time>2025-04-07T20:34:44Z</time>
      </trkpt>
      <trkpt lat="47.861091" lon="2.149451">
        <ele>112</ele>
        <time>2025-04-07T20:35:07Z</time>
      </trkpt>
      <trkpt lat="47.861181" lon="2.149172">
        <ele>111</ele>
        <time>2025-04-07T20:35:31Z</time>
      </trkpt>
      <trkpt lat="47.861277" lon="2.148888">
        <ele>112</ele>
        <time>2025-04-07T20:36:06Z</time>
      </trkpt>
      <trkpt lat="47.861372" lon="2.148593">
        <ele>113</ele>
        <time>2025-04-07T20:36:41Z</time>
      </trkpt>
      <trkpt lat="47.861464" lon="2.148338">
        <ele>113</ele>
        <time>2025-04-07T20:37:03Z</time>
      </trkpt>
      <trkpt lat="47.861556" lon="2.148075">
        <ele>113</ele>
        <time>2025-04-07T20:37:26Z</time>
      </trkpt>
      <trkpt lat="47.861644" lon="2.147834">
        <ele>113</ele>
        <time>2025-04-07T20:37:47Z</time>
      </trkpt>
      <trkpt lat="47.861759" lon="2.147574">
        <ele>113</ele>
        <time>2025-04-07T20:38:11Z</time>
      </trkpt>
      <trkpt lat="47.861829" lon="2.147362">
        <ele>113</ele>
        <time>2025-04-07T20:38:29Z</time>
      </trkpt>
      <trkpt lat="47.861887" lon="2.147174">
        <ele>111</ele>
        <time>2025-04-07T20:38:45Z</time>
      </trkpt>
      <trkpt lat="47.861961" lon="2.14693">
        <ele>108</ele>
        <time>2025-04-07T20:39:06Z</time>
      </trkpt>
      <trkpt lat="47.862033" lon="2.146681">
        <ele>105</ele>
        <time>2025-04-07T20:39:27Z</time>
      </trkpt>
      <trkpt lat="47.86209" lon="2.146496">
        <ele>105</ele>
        <time>2025-04-07T20:39:43Z</time>
      </trkpt>
      <trkpt lat="47.862151" lon="2.146305">
        <ele>105</ele>
        <time>2025-04-07T20:39:59Z</time>
      </trkpt>
      <trkpt lat="47.862207" lon="2.146198">
        <ele>105</ele>
        <time>2025-04-07T20:40:09Z</time>
      </trkpt>
      <trkpt lat="47.862273" lon="2.146089">
        <ele>105</ele>
        <time>2025-04-07T20:40:20Z</time>
      </trkpt>
      <trkpt lat="47.86241" lon="2.145895">
        <ele>105</ele>
        <time>2025-04-07T20:40:42Z</time>
      </trkpt>
      <trkpt lat="47.862547" lon="2.145699">
        <ele>105</ele>
        <time>2025-04-07T20:41:04Z</time>
      </trkpt>
      <trkpt lat="47.862666" lon="2.145506">
        <ele>105</ele>
        <time>2025-04-07T20:41:24Z</time>
      </trkpt>
      <trkpt lat="47.862745" lon="2.14531">
        <ele>105</ele>
        <time>2025-04-07T20:41:42Z</time>
      </trkpt>
      <trkpt lat="47.862814" lon="2.145144">
        <ele>105</ele>
        <time>2025-04-07T20:41:57Z</time>
      </trkpt>
      <trkpt lat="47.862869" lon="2.14501">
        <ele>105</ele>
        <time>2025-04-07T20:42:09Z</time>
      </trkpt>
      <trkpt lat="47.862914" lon="2.144892">
        <ele>104</ele>
        <time>2025-04-07T20:42:19Z</time>
      </trkpt>
      <trkpt lat="47.862992" lon="2.144698">
        <ele>104</ele>
        <time>2025-04-07T20:42:36Z</time>
      </trkpt>
      <trkpt lat="47.863076" lon="2.14447">
        <ele>105</ele>
        <time>2025-04-07T20:43:06Z</time>
      </trkpt>
      <trkpt lat="47.863159" lon="2.144259">
        <ele>105</ele>
        <time>2025-04-07T20:43:25Z</time>
      </trkpt>
      <trkpt lat="47.863233" lon="2.144057">
        <ele>104</ele>
        <time>2025-04-07T20:43:43Z</time>
      </trkpt>
      <trkpt lat="47.863318" lon="2.143839">
        <ele>105</ele>
        <time>2025-04-07T20:44:13Z</time>
      </trkpt>
      <trkpt lat="47.863401" lon="2.143632">
        <ele>104</ele>
        <time>2025-04-07T20:44:32Z</time>
      </trkpt>
      <trkpt lat="47.863487" lon="2.143412">
        <ele>105</ele>
        <time>2025-04-07T20:45:02Z</time>
      </trkpt>
      <trkpt lat="47.863577" lon="2.143166">
        <ele>105</ele>
        <time>2025-04-07T20:45:24Z</time>
      </trkpt>
      <trkpt lat="47.863656" lon="2.142956">
        <ele>105</ele>
        <time>2025-04-07T20:45:42Z</time>
      </trkpt>
      <trkpt lat="47.863743" lon="2.142731">
        <ele>104</ele>
        <time>2025-04-07T20:46:02Z</time>
      </trkpt>
      <trkpt lat="47.863825" lon="2.142519">
        <ele>105</ele>
        <time>2025-04-07T20:46:31Z</time>
      </trkpt>
      <trkpt lat="47.863914" lon="2.142301">
        <ele>104</ele>
        <time>2025-04-07T20:46:51Z</time>
      </trkpt>
      <trkpt lat="47.863995" lon="2.142087">
        <ele>104</ele>
        <time>2025-04-07T20:47:10Z</time>
      </trkpt>
      <trkpt lat="47.864077" lon="2.141859">
        <ele>104</ele>
        <time>2025-04-07T20:47:30Z</time>
      </trkpt>
      <trkpt lat="47.864158" lon="2.141639">
        <ele>104</ele>
        <time>2025-04-07T20:47:49Z</time>
      </trkpt>
      <trkpt lat="47.864238" lon="2.14141">
        <ele>104</ele>
        <time>2025-04-07T20:48:09Z</time>
      </trkpt>
      <trkpt lat="47.864309" lon="2.14117">
        <ele>104</ele>
        <time>2025-04-07T20:48:29Z</time>
      </trkpt>
      <trkpt lat="47.864378" lon="2.140926">
        <ele>104</ele>
        <time>2025-04-07T20:48:49Z</time>
      </trkpt>
      <trkpt lat="47.864468" lon="2.14066">
        <ele>104</ele>
        <time>2025-04-07T20:49:12Z</time>
      </trkpt>
      <trkpt lat="47.864547" lon="2.140438">
        <ele>104</ele>
        <time>2025-04-07T20:49:31Z</time>
      </trkpt>
      <trkpt lat="47.864648" lon="2.140154">
        <ele>104</ele>
        <time>2025-04-07T20:49:56Z</time>
      </trkpt>
      <trkpt lat="47.864755" lon="2.139857">
        <ele>103</ele>
        <time>2025-04-07T20:50:22Z</time>
      </trkpt>
      <trkpt lat="47.864822" lon="2.139624">
        <ele>103</ele>
        <time>2025-04-07T20:50:41Z</time>
      </trkpt>
      <trkpt lat="47.864921" lon="2.139378">
        <ele>102</ele>
        <time>2025-04-07T20:51:03Z</time>
      </trkpt>
      <trkpt lat="47.865002" lon="2.139201">
        <ele>102</ele>
        <time>2025-04-07T20:51:19Z</time>
      </trkpt>
      <trkpt lat="47.865094" lon="2.139039">
        <ele>102</ele>
        <time>2025-04-07T20:51:35Z</time>
      </trkpt>
      <trkpt lat="47.865254" lon="2.138701">
        <ele>102</ele>
        <time>2025-04-07T20:52:07Z</time>
      </trkpt>
      <trkpt lat="47.865326" lon="2.138501">
        <ele>102</ele>
        <time>2025-04-07T20:52:24Z</time>
      </trkpt>
      <trkpt lat="47.8654" lon="2.1383">
        <ele>102</ele>
        <time>2025-04-07T20:52:42Z</time>
      </trkpt>
      <trkpt lat="47.86547" lon="2.138107">
        <ele>102</ele>
        <time>2025-04-07T20:52:59Z</time>
      </trkpt>
      <trkpt lat="47.865555" lon="2.1379">
        <ele>102</ele>
        <time>2025-04-07T20:53:18Z</time>
      </trkpt>
      <trkpt lat="47.865684" lon="2.137573">
        <ele>101</ele>
        <time>2025-04-07T20:53:47Z</time>
      </trkpt>
      <trkpt lat="47.865821" lon="2.137266">
        <ele>102</ele>
        <time>2025-04-07T20:54:26Z</time>
      </trkpt>
      <trkpt lat="47.865979" lon="2.13694">
        <ele>102</ele>
        <time>2025-04-07T20:54:57Z</time>
      </trkpt>
      <trkpt lat="47.866138" lon="2.136601">
        <ele>102</ele>
        <time>2025-04-07T20:55:29Z</time>
      </trkpt>
      <trkpt lat="47.866292" lon="2.136246">
        <ele>102</ele>
        <time>2025-04-07T20:56:01Z</time>
      </trkpt>
      <trkpt lat="47.86644" lon="2.135873">
        <ele>102</ele>
        <time>2025-04-07T20:56:34Z</time>
      </trkpt>
      <trkpt lat="47.866555" lon="2.135583">
        <ele>102</ele>
        <time>2025-04-07T20:57:00Z</time>
      </trkpt>
      <trkpt lat="47.866616" lon="2.13546">
        <ele>102</ele>
        <time>2025-04-07T20:57:12Z</time>
      </trkpt>
      <trkpt lat="47.866685" lon="2.135358">
        <ele>103</ele>
        <time>2025-04-07T20:57:33Z</time>
      </trkpt>
      <trkpt lat="47.866782" lon="2.135237">
        <ele>104</ele>
        <time>2025-04-07T20:57:58Z</time>
      </trkpt>
      <trkpt lat="47.866894" lon="2.135145">
        <ele>104</ele>
        <time>2025-04-07T20:58:13Z</time>
      </trkpt>
      <trkpt lat="47.866988" lon="2.13497">
        <ele>106</ele>
        <time>2025-04-07T20:58:51Z</time>
      </trkpt>
      <trkpt lat="47.86705" lon="2.134856">
        <ele>108</ele>
        <time>2025-04-07T20:59:23Z</time>
      </trkpt>
      <trkpt lat="47.867086" lon="2.1348">
        <ele>109</ele>
        <time>2025-04-07T20:59:39Z</time>
      </trkpt>
      <trkpt lat="47.867127" lon="2.13473">
        <ele>110</ele>
        <time>2025-04-07T20:59:56Z</time>
      </trkpt>
      <trkpt lat="47.867205" lon="2.13464">
        <ele>113</ele>
        <time>2025-04-07T21:00:38Z</time>
      </trkpt>
      <trkpt lat="47.867277" lon="2.134483">
        <ele>113</ele>
        <time>2025-04-07T21:00:53Z</time>
      </trkpt>
      <trkpt lat="47.867357" lon="2.134305">
        <ele>114</ele>
        <time>2025-04-07T21:01:20Z</time>
      </trkpt>
      <trkpt lat="47.867439" lon="2.134108">
        <ele>115</ele>
        <time>2025-04-07T21:01:48Z</time>
      </trkpt>
      <trkpt lat="47.867506" lon="2.133924">
        <ele>115</ele>
        <time>2025-04-07T21:02:04Z</time>
      </trkpt>
      <trkpt lat="47.867599" lon="2.133668">
        <ele>116</ele>
        <time>2025-04-07T21:02:37Z</time>
      </trkpt>
      <trkpt lat="47.867688" lon="2.133401">
        <ele>116</ele>
        <time>2025-04-07T21:03:00Z</time>
      </trkpt>
      <trkpt lat="47.867781" lon="2.133121">
        <ele>115</ele>
        <time>2025-04-07T21:03:24Z</time>
      </trkpt>
      <trkpt lat="47.867864" lon="2.13283">
        <ele>115</ele>
        <time>2025-04-07T21:03:48Z</time>
      </trkpt>
      <trkpt lat="47.867934" lon="2.132562">
        <ele>114</ele>
        <time>2025-04-07T21:04:10Z</time>
      </trkpt>
      <trkpt lat="47.867966" lon="2.132372">
        <ele>113</ele>
        <time>2025-04-07T21:04:25Z</time>
      </trkpt>
      <trkpt lat="47.868009" lon="2.132225">
        <ele>110</ele>
        <time>2025-04-07T21:04:37Z</time>
      </trkpt>
      <trkpt lat="47.86807" lon="2.132051">
        <ele>111</ele>
        <time>2025-04-07T21:05:02Z</time>
      </trkpt>
      <trkpt lat="47.868137" lon="2.13186">
        <ele>110</ele>
        <time>2025-04-07T21:05:19Z</time>
      </trkpt>
      <trkpt lat="47.868219" lon="2.131628">
        <ele>109</ele>
        <time>2025-04-07T21:05:39Z</time>
      </trkpt>
      <trkpt lat="47.868335" lon="2.131296">
        <ele>108</ele>
        <time>2025-04-07T21:06:08Z</time>
      </trkpt>
      <trkpt lat="47.868481" lon="2.130982">
        <ele>108</ele>
        <time>2025-04-07T21:06:37Z</time>
      </trkpt>
      <trkpt lat="47.868617" lon="2.130699">
        <ele>109</ele>
        <time>2025-04-07T21:07:14Z</time>
      </trkpt>
      <trkpt lat="47.868756" lon="2.130418">
        <ele>110</ele>
        <time>2025-04-07T21:07:51Z</time>
      </trkpt>
      <trkpt lat="47.868805" lon="2.13025">
        <ele>110</ele>
        <time>2025-04-07T21:08:05Z</time>
      </trkpt>
      <trkpt lat="47.868876" lon="2.130052">
        <ele>110</ele>
        <time>2025-04-07T21:08:22Z</time>
      </trkpt>
      <trkpt lat="47.868958" lon="2.129853">
        <ele>109</ele>
        <time>2025-04-07T21:08:40Z</time>
      </trkpt>
      <trkpt lat="47.869068" lon="2.129684">
        <ele>110</ele>
        <time>2025-04-07T21:09:08Z</time>
      </trkpt>
      <trkpt lat="47.869116" lon="2.12959">
        <ele>111</ele>
        <time>2025-04-07T21:09:27Z</time>
      </trkpt>
      <trkpt lat="47.869233" lon="2.129273">
        <ele>108</ele>
        <time>2025-04-07T21:09:55Z</time>
      </trkpt>
      <trkpt lat="47.869336" lon="2.128967">
        <ele>110</ele>
        <time>2025-04-07T21:10:42Z</time>
      </trkpt>
      <trkpt lat="47.869425" lon="2.128639">
        <ele>110</ele>
        <time>2025-04-07T21:11:09Z</time>
      </trkpt>
      <trkpt lat="47.869516" lon="2.128291">
        <ele>111</ele>
        <time>2025-04-07T21:11:48Z</time>
      </trkpt>
      <trkpt lat="47.869633" lon="2.128064">
        <ele>111</ele>
        <time>2025-04-07T21:12:10Z</time>
      </trkpt>
      <trkpt lat="47.869876" lon="2.127658">
        <ele>111</ele>
        <time>2025-04-07T21:12:52Z</time>
      </trkpt>
      <trkpt lat="47.869996" lon="2.127299">
        <ele>109</ele>
        <time>2025-04-07T21:13:23Z</time>
      </trkpt>
      <trkpt lat="47.870104" lon="2.12695">
        <ele>110</ele>
        <time>2025-04-07T21:14:03Z</time>
      </trkpt>
      <trkpt lat="47.870138" lon="2.126776">
        <ele>110</ele>
        <time>2025-04-07T21:14:17Z</time>
      </trkpt>
      <trkpt lat="47.870178" lon="2.126583">
        <ele>110</ele>
        <time>2025-04-07T21:14:33Z</time>
      </trkpt>
      <trkpt lat="47.870257" lon="2.126213">
        <ele>109</ele>
        <time>2025-04-07T21:15:03Z</time>
      </trkpt>
      <trkpt lat="47.870304" lon="2.125953">
        <ele>110</ele>
        <time>2025-04-07T21:15:34Z</time>
      </trkpt>
      <trkpt lat="47.87028" lon="2.125898">
        <ele>107</ele>
        <time>2025-04-07T21:15:39Z</time>
      </trkpt>
      <trkpt lat="47.870211" lon="2.125863">
        <ele>101</ele>
        <time>2025-04-07T21:15:47Z</time>
      </trkpt>
      <trkpt lat="47.87012" lon="2.125806">
        <ele>99</ele>
        <time>2025-04-07T21:15:58Z</time>
      </trkpt>
      <trkpt lat="47.869942" lon="2.125704">
        <ele>99</ele>
        <time>2025-04-07T21:16:20Z</time>
      </trkpt>
      <trkpt lat="47.869789" lon="2.125616">
        <ele>99</ele>
        <time>2025-04-07T21:16:39Z</time>
      </trkpt>
      <trkpt lat="47.869619" lon="2.125514">
        <ele>99</ele>
        <time>2025-04-07T21:17:00Z</time>
      </trkpt>
      <trkpt lat="47.869438" lon="2.125407">
        <ele>99</ele>
        <time>2025-04-07T21:17:22Z</time>
      </trkpt>
      <trkpt lat="47.869285" lon="2.125324">
        <ele>99</ele>
        <time>2025-04-07T21:17:41Z</time>
      </trkpt>
      <trkpt lat="47.869116" lon="2.125227">
        <ele>99</ele>
        <time>2025-04-07T21:18:02Z</time>
      </trkpt>
      <trkpt lat="47.868952" lon="2.12513">
        <ele>99</ele>
        <time>2025-04-07T21:18:22Z</time>
      </trkpt>
      <trkpt lat="47.86879" lon="2.125037">
        <ele>99</ele>
        <time>2025-04-07T21:18:42Z</time>
      </trkpt>
      <trkpt lat="47.868623" lon="2.124948">
        <ele>99</ele>
        <time>2025-04-07T21:19:02Z</time>
      </trkpt>
      <trkpt lat="47.86847" lon="2.124857">
        <ele>99</ele>
        <time>2025-04-07T21:19:21Z</time>
      </trkpt>
      <trkpt lat="47.86832" lon="2.124776">
        <ele>99</ele>
        <time>2025-04-07T21:19:39Z</time>
      </trkpt>
      <trkpt lat="47.868169" lon="2.124685">
        <ele>99</ele>
        <time>2025-04-07T21:19:58Z</time>
      </trkpt>
      <trkpt lat="47.867982" lon="2.124583">
        <ele>99</ele>
        <time>2025-04-07T21:20:21Z</time>
      </trkpt>
      <trkpt lat="47.867775" lon="2.12446">
        <ele>99</ele>
        <time>2025-04-07T21:20:47Z</time>
      </trkpt>
      <trkpt lat="47.867604" lon="2.124358">
        <ele>103</ele>
        <time>2025-04-07T21:21:49Z</time>
      </trkpt>
      <trkpt lat="47.867469" lon="2.124296">
        <ele>106</ele>
        <time>2025-04-07T21:22:36Z</time>
      </trkpt>
      <trkpt lat="47.867392" lon="2.124264">
        <ele>106</ele>
        <time>2025-04-07T21:22:45Z</time>
      </trkpt>
      <trkpt lat="47.867352" lon="2.124272">
        <ele>105</ele>
        <time>2025-04-07T21:22:50Z</time>
      </trkpt>
      <trkpt lat="47.867322" lon="2.12439">
        <ele>105</ele>
        <time>2025-04-07T21:23:00Z</time>
      </trkpt>
      <trkpt lat="47.867284" lon="2.124369">
        <ele>105</ele>
        <time>2025-04-07T21:23:05Z</time>
      </trkpt>
      <trkpt lat="47.867243" lon="2.124347">
        <ele>105</ele>
        <time>2025-04-07T21:23:10Z</time>
      </trkpt>
      <trkpt lat="47.867225" lon="2.124269">
        <ele>106</ele>
        <time>2025-04-07T21:23:27Z</time>
      </trkpt>
      <trkpt lat="47.867167" lon="2.124248">
        <ele>106</ele>
        <time>2025-04-07T21:23:34Z</time>
      </trkpt>
      <trkpt lat="47.867149" lon="2.124162">
        <ele>105</ele>
        <time>2025-04-07T21:23:41Z</time>
      </trkpt>
      <trkpt lat="47.867133" lon="2.124044">
        <ele>105</ele>
        <time>2025-04-07T21:23:50Z</time>
      </trkpt>
      <trkpt lat="47.867099" lon="2.124004">
        <ele>105</ele>
        <time>2025-04-07T21:23:55Z</time>
      </trkpt>
      <trkpt lat="47.867037" lon="2.123899">
        <ele>105</ele>
        <time>2025-04-07T21:24:06Z</time>
      </trkpt>
      <trkpt lat="47.866932" lon="2.123853">
        <ele>105</ele>
        <time>2025-04-07T21:24:19Z</time>
      </trkpt>
      <trkpt lat="47.866765" lon="2.12376">
        <ele>105</ele>
        <time>2025-04-07T21:24:39Z</time>
      </trkpt>
      <trkpt lat="47.866601" lon="2.123658">
        <ele>105</ele>
        <time>2025-04-07T21:24:59Z</time>
      </trkpt>
      <trkpt lat="47.866453" lon="2.123569">
        <ele>105</ele>
        <time>2025-04-07T21:25:17Z</time>
      </trkpt>
      <trkpt lat="47.866329" lon="2.1235">
        <ele>105</ele>
        <time>2025-04-07T21:25:32Z</time>
      </trkpt>
    </trkseg>
  </trk>
</gpx>